Flight Track Log - Related Links

Times and Time Zones

All times are in EDT time to prevent confusion due to time zone crossing. See the VIR9913 flight status page for this flight to view local times or setup timezone preferences in your user account.

Time Position Orientation Groundspeed Altitude Reporting Facility
EDT Latitude Longitude Course Direction KTS MPH feet Rate Location/Type
Mon 00:07:25 36.0910 -86.6820 142° Southeast 174 200 2,300  Level FlightAware ADS-B
Mon 00:07:44 36.0810 -86.6700 136° Southeast 186 214 2,700 1,116 Climbing FlightAware ADS-B
Mon 00:08:08 36.0650 -86.6470 131° Southeast 218 251 3,100 1,000 Climbing FlightAware ADS-B
Mon 00:08:14 36.0630 -86.6400 109° East 226 260 3,200 1,000 Climbing FlightAware ADS-B
Mon 00:08:20 36.0620 -86.6320 99° East 237 273 3,300 1,579 Climbing FlightAware ADS-B
Mon 00:08:52 36.0700 -86.5840 78° East 271 312 4,200 1,909 Climbing FlightAware ADS-B
Mon 00:09:04 36.0750 -86.5660 71° East 274 315 4,700 2,333 Climbing FlightAware ADS-B
Mon 00:09:28 36.0850 -86.5300 71° East 283 326 5,600 2,455 Climbing FlightAware ADS-B
Mon 00:09:48 36.0930 -86.4990 72° East 287 330 6,500 2,625 Climbing FlightAware ADS-B
Mon 00:10:00 36.0980 -86.4800 72° East 290 334 7,000 2,471 Climbing FlightAware ADS-B
Mon 00:10:22 36.1070 -86.4450 72° East 294 338 7,900 2,455 Climbing FlightAware ADS-B
Mon 00:10:44 36.1160 -86.4090 73° East 300 345 8,800 2,526 Climbing FlightAware ADS-B
Mon 00:11:00 36.1220 -86.3830 74° East 300 345 9,500 1,846 Climbing FlightAware ADS-B
Mon 00:11:36 36.1380 -86.3210 72° East 327 376 10,400 1,263 Climbing FlightAware ADS-B
Mon 00:12:16 36.1570 -86.2460 73° East 365 420 11,100 1,000 Climbing FlightAware ADS-B
Mon 00:12:48 36.1740 -86.1800 72° East 393 452 11,600 1,543 Climbing FlightAware ADS-B
Mon 00:13:26 36.1960 -86.0940 72° East 405 466 12,900 1,938 Climbing FlightAware ADS-B
Mon 00:13:53 36.2150 -86.0390 67° East 412 474 13,700 1,810 Climbing FlightAware ADS-B
Mon 00:14:29 36.2500 -85.9610 61° Northeast 426 490 14,800 1,765 Climbing FlightAware ADS-B
Mon 00:15:01 36.2800 -85.8920 62° Northeast 438 504 15,700 1,826 Climbing FlightAware ADS-B
Mon 00:15:38 36.3140 -85.8150 61° Northeast 440 506 16,900 1,853 Climbing FlightAware ADS-B
Mon 00:16:09 36.3450 -85.7420 62° Northeast 452 520 17,800 1,667 Climbing FlightAware ADS-B
Mon 00:16:32 36.3683 -85.6864 62° Northeast 458 527 18,400 1,698 Climbing FlightAware ADS-B
Mon 00:17:02 36.3973 -85.6166 63° Northeast 463 533 19,300 1,700 Climbing FlightAware ADS-B
Mon 00:17:32 36.4264 -85.5469 63° Northeast 471 542 20,100 1,600 Climbing FlightAware ADS-B
Mon 00:18:02 36.4580 -85.4712 63° Northeast 476 548 20,900 1,500 Climbing FlightAware ADS-B
Mon 00:18:32 36.4885 -85.3980 63° Northeast 483 556 21,600 1,500 Climbing FlightAware ADS-B
Mon 00:19:02 36.5197 -85.3230 63° Northeast 488 562 22,400 1,552 Climbing FlightAware ADS-B
Mon 00:19:30 36.5484 -85.2519 63° Northeast 492 566 23,100 1,424 Climbing FlightAware ADS-B
Mon 00:20:01 36.5785 -85.1757 64° Northeast 499 574 23,800 1,333 Climbing FlightAware ADS-B
Mon 00:20:33 36.6124 -85.0902 64° Northeast 501 577 24,500 1,238 Climbing FlightAware ADS-B
Mon 00:21:04 36.6444 -85.0099 64° Northeast 509 586 25,100 1,279 Climbing FlightAware ADS-B
Mon 00:21:34 36.6758 -84.9305 64° Northeast 514 592 25,800 1,300 Climbing FlightAware ADS-B
Mon 00:22:04 36.7076 -84.8504 64° Northeast 518 596 26,400 1,180 Climbing FlightAware ADS-B
Mon 00:22:35 36.7399 -84.7685 64° Northeast 522 601 27,000 1,082 Climbing FlightAware ADS-B
Mon 00:23:05 36.7722 -84.6863 64° Northeast 528 608 27,500 1,082 Climbing FlightAware ADS-B
Mon 00:23:36 36.8051 -84.6025 64° Northeast 533 613 28,100 1,377 Climbing FlightAware ADS-B
Mon 00:24:06 36.8379 -84.5189 64° Northeast 535 616 28,900 1,500 Climbing FlightAware ADS-B
Mon 00:24:36 36.8703 -84.4358 64° Northeast 538 619 29,600 1,377 Climbing FlightAware ADS-B
Mon 00:25:07 36.9043 -84.3487 64° Northeast 541 623 30,300 1,355 Climbing FlightAware ADS-B
Mon 00:25:38 36.9378 -84.2623 64° Northeast 543 625 31,000 1,180 Climbing FlightAware ADS-B
Mon 00:26:08 36.9715 -84.1753 64° Northeast 548 631 31,500 984 Climbing FlightAware ADS-B
Mon 00:26:39 37.0056 -84.0870 64° Northeast 556 640 32,000 857 Climbing FlightAware ADS-B
Mon 00:27:11 37.0414 -83.9942 64° Northeast 564 649 32,400 1,012 Climbing FlightAware ADS-B
Mon 00:28:02 37.0990 -83.8450 64° Northeast 569 655 33,400 1,084 Climbing FlightAware ADS-B
Mon 00:28:34 37.1360 -83.7480 64° Northeast 572 658 33,900 1,059 Climbing FlightAware ADS-B
Mon 00:28:53 37.1573 -83.6911 65° Northeast 572 658 34,300 1,347 Climbing FlightAware ADS-B
Mon 00:29:23 37.1917 -83.6008 64° Northeast 570 656 35,000 689 Climbing FlightAware ADS-B
Mon 00:29:54 37.2265 -83.5091 64° Northeast 573 659 35,000  Level FlightAware ADS-B
Mon 00:30:25 37.2616 -83.4161 65° Northeast 576 663 35,000  Level FlightAware ADS-B
Mon 00:30:58 37.2987 -83.3177 65° Northeast 576 663 35,000  Level FlightAware ADS-B
Mon 00:31:28 37.3334 -83.2253 65° Northeast 573 659 35,000  Level FlightAware ADS-B
Mon 00:31:58 37.3673 -83.1348 65° Northeast 573 659 35,000  Level FlightAware ADS-B
Mon 00:32:43 37.4180 -82.9990 65° Northeast 575 662 35,000  Level FlightAware ADS-B
Mon 00:33:18 37.4574 -82.8930 65° Northeast 577 664 35,000  Level FlightAware ADS-B
Mon 00:33:49 37.4910 -82.8010 65° Northeast 577 664 35,000  Level FlightAware ADS-B
Mon 00:34:09 37.5143 -82.7393 65° Northeast 577 664 35,000  Level FlightAware ADS-B
Mon 00:34:50 37.5606 -82.6138 65° Northeast 575 662 35,000  Level FlightAware ADS-B
Mon 00:35:29 37.6035 -82.4970 65° Northeast 576 663 35,000  Level FlightAware ADS-B
Mon 00:36:05 37.6426 -82.3898 65° Northeast 579 666 35,000  Level FlightAware ADS-B
Mon 00:36:35 37.6773 -82.2946 65° Northeast 579 666 35,000  Level FlightAware ADS-B
Mon 00:37:05 37.7108 -82.2024 65° Northeast 579 666 35,000  Level FlightAware ADS-B
Mon 00:37:35 37.7442 -82.1102 65° Northeast 577 664 35,000  Level FlightAware ADS-B
Mon 00:38:05 37.7774 -82.0183 65° Northeast 575 662 35,000  Level FlightAware ADS-B
Mon 00:38:36 37.8112 -81.9241 66° East 573 659 35,000  Level FlightAware ADS-B
Mon 00:39:06 37.8441 -81.8326 65° Northeast 573 659 35,000  Level FlightAware ADS-B
Mon 00:39:37 37.8778 -81.7383 66° East 572 658 35,000  Level FlightAware ADS-B
Mon 00:40:09 37.9122 -81.6421 66° East 573 659 35,000  Level FlightAware ADS-B
Mon 00:40:39 37.9453 -81.5488 66° East 573 659 35,000  Level FlightAware ADS-B
Mon 00:41:11 37.9804 -81.4497 66° East 574 661 35,000  Level FlightAware ADS-B
Mon 00:42:00 38.0330 -81.3020 66° East 573 659 35,000  Level FlightAware ADS-B
Mon 00:42:16 38.0498 -81.2529 67° East 573 659 35,000  Level FlightAware ADS-B
Mon 00:43:16 38.1150 -81.0668 66° East 575 662 35,000  Level FlightAware ADS-B
Mon 00:44:20 38.1820 -80.8750 66° East 575 662 35,000  Level FlightAware ADS-B
Mon 00:44:57 38.2230 -80.7550 66° East 575 662 35,000  Level FlightAware ADS-B
Mon 00:45:32 38.2590 -80.6520 66° East 575 662 35,000  Level FlightAware ADS-B
Mon 00:46:03 38.2930 -80.5520 67° East 575 662 35,000  Level FlightAware ADS-B
Mon 00:46:41 38.3330 -80.4340 67° East 574 661 35,000  Level FlightAware ADS-B
Mon 00:47:17 38.3700 -80.3270 66° East 574 661 35,000  Level FlightAware ADS-B
Mon 00:47:53 38.4100 -80.2110 66° East 574 661 35,000  Level FlightAware ADS-B
Mon 00:48:22 38.4400 -80.1210 67° East 574 661 35,000  Level FlightAware ADS-B
Mon 00:49:02 38.4810 -79.9990 67° East 574 661 35,000  Level FlightAware ADS-B
Mon 00:49:38 38.5190 -79.8860 67° East 573 659 35,000  Level FlightAware ADS-B
Mon 00:50:08 38.5500 -79.7930 67° East 573 659 35,000  Level FlightAware ADS-B
Mon 00:50:44 38.5860 -79.6860 67° East 574 661 35,000  Level FlightAware ADS-B
Mon 00:51:15 38.6190 -79.5880 67° East 575 662 35,000  Level FlightAware ADS-B
Mon 00:51:54 38.6610 -79.4610 67° East 575 662 35,000  Level FlightAware ADS-B
Mon 00:52:27 38.6940 -79.3590 67° East 575 662 35,000  Level FlightAware ADS-B
Mon 00:53:06 38.7340 -79.2370 67° East 575 662 35,000  Level FlightAware ADS-B
Mon 00:53:42 38.7710 -79.1240 67° East 576 663 35,000  Level FlightAware ADS-B
Mon 00:54:18 38.8070 -79.0150 67° East 577 664 35,000  Level FlightAware ADS-B
Mon 00:54:47 38.8370 -78.9200 68° East 577 664 35,000  Level FlightAware ADS-B
Mon 00:55:26 38.8770 -78.7990 67° East 576 663 35,000  Level FlightAware ADS-B
Mon 00:56:02 38.9120 -78.6890 68° East 576 663 35,000  Level FlightAware ADS-B
Mon 00:56:13 38.9258 -78.6466 67° East 573 659 35,000  Level FlightAware ADS-B (KWWD)
Mon 00:57:10 38.9810 -78.4730 68° East 576 663 35,000  Level FlightAware ADS-B
Mon 00:57:46 39.0180 -78.3570 68° East 577 664 35,000  Level FlightAware ADS-B
Mon 00:58:19 39.0530 -78.2473 68° East 576 663 35,000  Level FlightAware ADS-B (KWWD)
Mon 00:58:58 39.0923 -78.1226 68° East 574 661 35,000  Level FlightAware ADS-B (KWWD)
Mon 00:59:29 39.1231 -78.0249 68° East 575 662 35,000  Level FlightAware ADS-B (KWWD)
Mon 01:00:07 39.1600 -77.9070 68° East 578 665 35,000  Level FlightAware ADS-B
Mon 01:00:39 39.1916 -77.8058 68° East 578 665 35,000  Level FlightAware ADS-B (KWWD)
Mon 01:01:09 39.2229 -77.7050 68° East 579 666 35,000  Level FlightAware ADS-B (KWWD)
Mon 01:01:40 39.2531 -77.6076 68° East 578 665 35,000  Level FlightAware ADS-B (KWWD)
Mon 01:02:26 39.2980 -77.4620 68° East 577 664 35,000  Level FlightAware ADS-B
Mon 01:02:38 39.3108 -77.4200 68° East 578 665 35,000  Level FlightAware ADS-B (KWWD)
Mon 01:03:10 39.3420 -77.3182 68° East 578 665 35,000  Level FlightAware ADS-B (KWWD)
Mon 01:03:48 39.3791 -77.1970 68° East 579 666 35,000  Level FlightAware ADS-B (KWWD)
Mon 01:04:20 39.4103 -77.0942 68° East 578 665 35,000  Level FlightAware ADS-B (KWWD)
Mon 01:04:50 39.3420 -77.3182 249° West 578 665 35,000  Level FlightAware ADS-B (KSYR)
Mon 01:05:20 39.4608 -76.9269 68° East 578 665 35,000  Level FlightAware ADS-B (KSYR)
Mon 01:05:59 39.5052 -76.7794 69° East 578 665 35,000  Level FlightAware ADS-B (KWWD)
Mon 01:06:29 39.5356 -76.6780 69° East 577 664 35,000  Level FlightAware ADS-B (KWWD)
Mon 01:06:59 39.5642 -76.5820 69° East 576 663 35,000  Level FlightAware ADS-B (KWWD)
Mon 01:07:20 39.5839 -76.5154 69° East 577 664 35,000  Level FlightAware ADS-B (KSYR)
Mon 01:07:40 39.5998 -76.4619 69° East 576 663 35,000  Level FlightAware ADS-B (KSYR)
Mon 01:07:50 39.6096 -76.4289 69° East 577 664 35,000  Level FlightAware ADS-B (KSYR)
Mon 01:07:59 39.6148 -76.4111 69° East 577 664 35,000  Level FlightAware ADS-B (KSYR)
Mon 01:08:10 39.6308 -76.3574 69° East 577 664 35,000  Level FlightAware ADS-B (KSYR)
Mon 01:08:21 39.6381 -76.3326 69° East 577 664 35,000  Level FlightAware ADS-B (KSYR)
Mon 01:08:51 39.6698 -76.2247 69° East 576 663 35,000  Level FlightAware ADS-B (KSYR)
Mon 01:09:09 39.6841 -76.1758 69° East 575 662 35,000  Level FlightAware ADS-B (KSYR)
Mon 01:09:20 39.6980 -76.1283 69° East 575 662 35,000  Level FlightAware ADS-B (KSYR)
Mon 01:09:31 39.7072 -76.0967 69° East 575 662 35,000  Level FlightAware ADS-B (KSYR)
Mon 01:09:49 39.7243 -76.0383 69° East 576 663 35,000  Level FlightAware ADS-B (KSYR)
Mon 01:10:11 39.7462 -75.9631 69° East 577 664 35,000  Level FlightAware ADS-B (KSYR)
Mon 01:10:18 39.7528 -75.9403 69° East 578 665 35,000  Level FlightAware ADS-B (KSYR)
Mon 01:10:24 39.7578 -75.9230 69° East 578 665 35,000  Level FlightAware ADS-B (KSYR)
Mon 01:11:00 39.7922 -75.8045 69° East 576 663 35,000  Level FlightAware ADS-B (KWWD)
Mon 01:11:31 39.8209 -75.7046 69° East 576 663 35,000  Level FlightAware ADS-B (KWWD)
Mon 01:12:01 39.8495 -75.6053 69° East 577 664 35,000  Level FlightAware ADS-B (KWWD)
Mon 01:12:31 39.8772 -75.5087 70° East 579 666 35,000  Level FlightAware ADS-B (KSYR)
Mon 01:13:01 39.9047 -75.4121 70° East 576 663 35,000  Level FlightAware ADS-B (KWWD)
Mon 01:13:40 39.9416 -75.2820 70° East 576 663 35,000  Level FlightAware ADS-B (KWWD)
Mon 01:14:11 39.9696 -75.1830 70° East 577 664 35,000  Level FlightAware ADS-B (KWWD)
Mon 01:14:51 40.0061 -75.0532 70° East 577 664 35,000  Level FlightAware ADS-B (KWWD)
Mon 01:15:31 40.0432 -74.9210 70° East 580 667 35,000  Level FlightAware ADS-B (KWWD)
Mon 01:16:10 40.0792 -74.7914 70° East 580 667 35,000  Level FlightAware ADS-B (KWWD)
Mon 01:16:41 40.1071 -74.6909 70° East 577 664 35,000  Level FlightAware ADS-B (KWWD)
Mon 01:17:20 40.1427 -74.5619 70° East 576 663 35,000  Level FlightAware ADS-B (KWWD)
Mon 01:17:51 40.1700 -74.4625 70° East 573 659 35,000  Level FlightAware ADS-B (KWWD)
Mon 01:18:30 40.2047 -74.3359 70° East 569 655 35,000  Level FlightAware ADS-B (KWWD)
Mon 01:19:01 40.2317 -74.2366 70° East 566 651 35,000  Level FlightAware ADS-B (KWWD)
Mon 01:19:30 40.2584 -74.1402 70° East 570 656 35,000  Level FlightAware ADS-B (KSNC)
Mon 01:20:04 40.2993 -74.0370 63° Northeast 567 652 35,000  Level FlightAware ADS-B (KSNC)
Mon 01:20:34 40.3370 -73.9489 61° Northeast 567 652 35,000  Level FlightAware ADS-B (KSNC)
Mon 01:21:12 40.3854 -73.8353 61° Northeast 567 652 35,000  Level FlightAware ADS-B (KWWD)
Mon 01:21:51 40.4348 -73.7194 61° Northeast 563 648 35,000  Level FlightAware ADS-B (KWWD)
Mon 01:22:21 40.4737 -73.6281 61° Northeast 562 647 35,000  Level FlightAware ADS-B (KWWD)
Mon 01:22:52 40.5121 -73.5373 61° Northeast 563 648 35,000  Level FlightAware ADS-B (KWWD)
Mon 01:23:31 40.5619 -73.4196 61° Northeast 564 649 35,000  Level FlightAware ADS-B (KWWD)
Mon 01:24:02 40.6004 -73.3283 61° Northeast 563 648 35,000  Level FlightAware ADS-B (KWWD)
Mon 01:24:35 40.6408 -73.2322 61° Northeast 562 647 35,000  Level FlightAware ADS-B (KSNC)
Mon 01:25:05 40.6795 -73.1398 61° Northeast 562 647 35,000  Level FlightAware ADS-B (KSNC)
Mon 01:25:12 40.6883 -73.1187 61° Northeast 561 646 35,000  Level FlightAware ADS-B (KSNC)
Mon 01:25:44 40.7286 -73.0221 61° Northeast 562 647 35,000  Level FlightAware ADS-B (KSNC)
Mon 01:26:22 40.7750 -72.9105 61° Northeast 557 641 35,000  Level FlightAware ADS-B (KWWD)
Mon 01:26:56 40.8163 -72.8109 61° Northeast 559 643 35,000  Level FlightAware ADS-B (KSNC)
Mon 01:27:31 40.8613 -72.7019 61° Northeast 555 639 35,000  Level FlightAware ADS-B (KWWD)
Mon 01:28:01 40.8922 -72.6267 61° Northeast 558 642 35,000  Level FlightAware ADS-B
Mon 01:28:31 40.9339 -72.5251 61° Northeast 554 638 35,000  Level FlightAware ADS-B (KWWD)
Mon 01:29:06 40.9774 -72.4186 62° Northeast 558 642 35,000  Level FlightAware ADS-B (KSNC)
Mon 01:29:40 40.9662 -72.4461 242° Southwest 558 642 35,000  Level FlightAware ADS-B
Mon 01:30:16 40.9954 -72.3745 62° Northeast 559 643 35,000  Level FlightAware ADS-B (KSNC)
Mon 01:30:49 41.1030 -72.1110 61° Northeast 558 642 35,000  Level FlightAware ADS-B
Mon 01:30:53 41.1074 -72.0984 65° Northeast 559 643 35,000  Level FlightAware ADS-B (KBKF)
Mon 01:31:23 41.1427 -72.0110 62° Northeast 559 643 35,000  Level FlightAware ADS-B (KBKF)
Mon 01:31:53 41.1807 -71.9163 62° Northeast 558 642 35,000  Level FlightAware ADS-B (KBKF)
Mon 01:32:23 41.2143 -71.8325 62° Northeast 559 643 35,000  Level FlightAware ADS-B (KBKF)
Mon 01:32:54 41.2538 -71.7337 62° Northeast 560 644 35,000  Level FlightAware ADS-B (KBKF)
Mon 01:33:24 41.2907 -71.6410 62° Northeast 561 646 35,000  Level FlightAware ADS-B (KBKF)
Mon 01:34:04 41.3344 -71.5310 62° Northeast 563 648 35,000  Level FlightAware ADS-B
Mon 01:34:34 41.3754 -71.4272 62° Northeast 563 648 35,000  Level FlightAware ADS-B
Mon 01:35:07 41.4156 -71.3252 62° Northeast 563 648 35,000  Level FlightAware ADS-B
Mon 01:35:37 41.4518 -71.2329 62° Northeast 564 649 35,000  Level FlightAware ADS-B
Mon 01:36:12 41.4936 -71.1260 62° Northeast 563 648 35,000  Level FlightAware ADS-B
Mon 01:36:43 41.5300 -71.0327 62° Northeast 563 648 35,000  Level FlightAware ADS-B (KBKF)
Mon 01:37:13 41.5673 -70.9370 62° Northeast 563 648 35,000  Level FlightAware ADS-B (KBKF)
Mon 01:37:43 41.5947 -70.8661 63° Northeast 561 646 35,000  Level FlightAware ADS-B (KBKF)
Mon 01:38:18 41.6441 -70.7382 63° Northeast 560 644 35,000  Level FlightAware ADS-B (KBKF)
Mon 01:38:48 41.6794 -70.6466 63° Northeast 559 643 35,000  Level FlightAware ADS-B
Mon 01:39:21 41.7183 -70.5452 63° Northeast 555 639 35,000  Level FlightAware ADS-B
Mon 01:39:28 41.7263 -70.5242 63° Northeast 555 639 35,000  Level FlightAware ADS-B
Mon 01:40:03 41.7677 -70.4159 63° Northeast 560 644 35,000  Level FlightAware ADS-B (KBKF)
Mon 01:40:14 41.7808 -70.3815 63° Northeast 557 641 35,000  Level FlightAware ADS-B
Mon 01:40:47 41.8163 -70.2879 63° Northeast 562 647 35,000  Level FlightAware ADS-B
Mon 01:41:17 41.8544 -70.1874 63° Northeast 562 647 35,000  Level FlightAware ADS-B
Mon 01:41:48 41.8906 -70.0915 63° Northeast 562 647 35,000  Level FlightAware ADS-B
Mon 01:41:56 41.9001 -70.0662 63° Northeast 559 643 35,000  Level FlightAware ADS-B
Mon 01:42:13 41.9205 -70.0119 63° Northeast 559 643 35,000  Level FlightAware ADS-B
Mon 01:42:35 41.9464 -69.9429 63° Northeast 560 644 35,000  Level FlightAware ADS-B
Mon 01:42:45 41.9418 -69.9553 243° Southwest 563 648 35,000  Level FlightAware ADS-B
Mon 01:43:19 41.9939 -69.8159 63° Northeast 563 648 35,000  Level FlightAware ADS-B
Mon 01:43:50 42.0336 -69.7093 63° Northeast 562 647 35,000  Level FlightAware ADS-B
Mon 01:44:20 42.0670 -69.6193 63° Northeast 563 648 35,000  Level FlightAware ADS-B
Mon 01:44:51 42.1026 -69.5231 64° Northeast 564 649 35,000  Level FlightAware ADS-B
Mon 01:45:21 42.1378 -69.4275 64° Northeast 564 649 35,000  Level FlightAware ADS-B
Mon 01:45:52 42.1740 -69.3289 64° Northeast 561 646 35,000  Level FlightAware ADS-B
Mon 01:46:12 42.1974 -69.2652 64° Northeast 561 646 35,000  Level FlightAware ADS-B
Mon 01:46:42 42.2317 -69.1712 64° Northeast 560 644 35,000  Level FlightAware ADS-B
Mon 01:46:50 42.2407 -69.1464 64° Northeast 560 644 35,000  Level FlightAware ADS-B
Mon 01:46:59 42.2518 -69.1162 64° Northeast 560 644 35,000  Level FlightAware ADS-B
Mon 01:47:03 42.2559 -69.1049 64° Northeast 560 644 35,000  Level FlightAware ADS-B
Mon 01:47:24 42.2801 -69.0382 64° Northeast 560 644 35,000  Level FlightAware ADS-B
Mon 01:47:43 42.3018 -68.9784 64° Northeast 560 644 35,000  Level FlightAware ADS-B
Mon 01:48:13 42.3358 -68.8843 64° Northeast 563 648 35,000  Level FlightAware ADS-B
Mon 01:48:44 42.3713 -68.7860 64° Northeast 563 648 35,000  Level FlightAware ADS-B
Mon 01:49:14 42.4053 -68.6910 64° Northeast 564 649 35,000  Level FlightAware ADS-B (EGHI / SOU)
Mon 01:49:47 42.4432 -68.5852 64° Northeast 565 650 35,000  Level FlightAware ADS-B
Mon 01:50:21 42.4788 -68.4855 64° Northeast 566 651 35,000  Level FlightAware ADS-B
Mon 01:50:55 42.5048 -68.4121 64° Northeast 565 650 35,000  Level FlightAware ADS-B
Mon 01:51:29 42.5330 -68.3326 64° Northeast 565 650 35,000  Level FlightAware ADS-B
Mon 01:52:10 42.6015 -68.1386 64° Northeast 565 650 35,000  Level FlightAware ADS-B (EGHI / SOU)
Mon 01:52:50 42.6477 -68.0066 64° Northeast 563 648 35,000  Level FlightAware ADS-B (EGHI / SOU)
Mon 01:53:24 42.6862 -67.8963 65° Northeast 563 648 35,000  Level FlightAware ADS-B (EGHI / SOU)
Mon 01:54:13 42.7306 -67.7688 65° Northeast 565 650 35,000  Level FlightAware ADS-B (EGHI / SOU)
Mon 01:54:46 42.7767 -67.6355 65° Northeast 563 648 35,000  Level FlightAware ADS-B (EGHI / SOU)
Mon 01:55:16 42.8106 -67.5370 65° Northeast 564 649 35,000  Level FlightAware ADS-B (EGHI / SOU)
Mon 01:55:56 42.8547 -67.4083 65° Northeast 565 650 35,000  Level FlightAware ADS-B (EGHI / SOU)
Mon 01:56:27 42.8827 -67.3264 65° Northeast 566 651 35,000  Level FlightAware ADS-B (EGHI / SOU)
Mon 01:57:19 42.9452 -67.1425 65° Northeast 566 651 35,000  Level FlightAware ADS-B (EGHI / SOU)
Mon 01:57:49 42.9767 -67.0494 65° Northeast 565 650 35,000  Level FlightAware ADS-B (EGHI / SOU)
Mon 01:58:29 43.0220 -66.9148 65° Northeast 565 650 35,000  Level FlightAware ADS-B (EGHI / SOU)
Mon 01:59:00 43.0545 -66.8181 65° Northeast 565 650 35,000  Level FlightAware ADS-B (EGHI / SOU)
Mon 01:59:33 43.0912 -66.7083 65° Northeast 565 650 35,000  Level FlightAware ADS-B (EGHI / SOU)
Mon 02:00:04 43.1235 -66.6114 65° Northeast 566 651 35,000  Level FlightAware ADS-B (EGHI / SOU)
Mon 02:00:38 43.1614 -66.4969 66° East 565 650 35,000  Level FlightAware ADS-B (EGHI / SOU)
Mon 02:01:10 43.1947 -66.3962 66° East 566 651 35,000  Level FlightAware ADS-B (EGHI / SOU)
Mon 02:01:40 43.2256 -66.3024 66° East 565 650 35,000  Level FlightAware ADS-B (EGHI / SOU)
Mon 02:02:16 43.2660 -66.1800 66° East 563 648 35,000  Level FlightAware ADS-B
Mon 02:02:30 43.2821 -66.1296 66° East 566 651 35,000  Level FlightAware ADS-B (EGHI / SOU)
Mon 02:03:01 43.3100 -66.0442 66° East 566 651 35,000  Level FlightAware ADS-B (EGHI / SOU)
Mon 02:03:31 43.3468 -65.9306 66° East 566 651 35,000  Level FlightAware ADS-B (EGHI / SOU)
Mon 02:04:01 43.3779 -65.8345 66° East 566 651 35,000  Level FlightAware ADS-B (EGHI / SOU)
Mon 02:04:33 43.4117 -65.7296 66° East 566 651 35,000  Level FlightAware ADS-B (EGHI / SOU)
Mon 02:05:12 43.4533 -65.5999 66° East 566 651 35,000  Level FlightAware ADS-B (EGHI / SOU)
Mon 02:05:42 43.4851 -65.5003 66° East 566 651 35,000  Level FlightAware ADS-B (EGHI / SOU)
Mon 02:06:13 43.5170 -65.4000 66° East 566 651 35,000  Level FlightAware ADS-B (EGHI / SOU)
Mon 02:06:49 43.5493 -65.2978 66° East 567 652 35,000  Level FlightAware ADS-B (EGHI / SOU)
Mon 02:07:19 43.5861 -65.1816 66° East 567 652 35,000  Level FlightAware ADS-B (EGHI / SOU)
Mon 02:07:52 43.6204 -65.0723 66° East 566 651 35,000  Level FlightAware ADS-B (EGHI / SOU)
Mon 02:08:23 43.6525 -64.9699 67° East 566 651 35,000  Level FlightAware ADS-B (EGHI / SOU)
Mon 02:09:03 43.6940 -64.8365 67° East 566 651 35,000  Level FlightAware ADS-B (EGHI / SOU)
Mon 02:09:44 43.7360 -64.7012 67° East 566 651 35,000  Level FlightAware ADS-B (EGHI / SOU)
Mon 02:10:24 43.7775 -64.5665 67° East 566 651 35,000  Level FlightAware ADS-B (EGHI / SOU)
Mon 02:10:56 43.8013 -64.4891 67° East 567 652 35,000  Level FlightAware ADS-B (EGHI / SOU)
Mon 02:11:27 43.8310 -64.3930 67° East 563 648 35,000  Level FlightAware ADS-B
Mon 02:11:46 43.8552 -64.3125 67° East 567 652 35,000  Level FlightAware ADS-B (EGHI / SOU)
Mon 02:12:17 43.8916 -64.1926 67° East 568 654 35,000  Level FlightAware ADS-B (EGHI / SOU)
Mon 02:12:48 43.9232 -64.0882 67° East 568 654 35,000  Level FlightAware ADS-B (EGHI / SOU)
Mon 02:13:18 43.9538 -63.9867 67° East 568 654 35,000  Level FlightAware ADS-B (EGHI / SOU)
Mon 02:13:52 43.9885 -63.8709 67° East 567 652 35,000  Level FlightAware ADS-B (EGHI / SOU)
Mon 02:14:23 44.0184 -63.7708 67° East 565 650 35,000  Level FlightAware ADS-B (EGHI / SOU)
Mon 02:14:53 44.0488 -63.6689 67° East 565 650 35,000  Level FlightAware ADS-B (EGHI / SOU)
Mon 02:15:24 44.0779 -63.5704 68° East 564 649 35,000  Level FlightAware ADS-B (EGHI / SOU)
Mon 02:15:54 44.1094 -63.4638 68° East 565 650 35,000  Level FlightAware ADS-B (EGHI / SOU)
Mon 02:16:33 44.1477 -63.3334 68° East 565 650 35,000  Level FlightAware ADS-B (EGHI / SOU)
Mon 02:17:04 44.1789 -63.2267 68° East 564 649 35,000  Level FlightAware ADS-B (EGHI / SOU)
Mon 02:17:35 44.2086 -63.1248 68° East 566 651 35,000  Level FlightAware ADS-B (EGHI / SOU)
Mon 02:18:06 44.2387 -63.0209 68° East 567 652 35,000  Level FlightAware ADS-B (EGHI / SOU)
Mon 02:18:41 44.2740 -62.9000 68° East 569 655 35,000  Level FlightAware ADS-B
Mon 02:18:57 44.2888 -62.8471 69° East 570 656 35,000  Level FlightAware ADS-B (EGHI / SOU)
Mon 02:19:31 44.3170 -62.7500 68° East 570 656 35,000  Level FlightAware ADS-B
Mon 02:19:32 44.3233 -62.7266 69° East 570 656 35,000  Level FlightAware ADS-B (EGHI / SOU)
Mon 02:20:03 44.3530 -62.6210 69° East 570 656 35,000  Level FlightAware ADS-B
Mon 02:20:08 44.3524 -62.6248 257° West 570 656 35,000  Level FlightAware ADS-B (EGHI / SOU)
Mon 02:20:41 44.3861 -62.5060 68° East 570 656 35,000  Level FlightAware ADS-B (EGHI / SOU)
Mon 02:21:18 44.4250 -62.3680 68° East 570 656 35,000  Level FlightAware ADS-B
Mon 02:21:34 44.4413 -62.3105 68° East 570 656 35,000  Level FlightAware ADS-B (EGHI / SOU)
Mon 02:22:31 44.4860 -62.1560 68° East 570 656 35,000  Level FlightAware ADS-B
Mon 02:23:07 44.5170 -62.0510 67° East 570 656 35,000  Level FlightAware ADS-B
Mon 02:23:43 44.5470 -61.9460 68° East 570 656 35,000  Level FlightAware ADS-B
Mon 02:24:19 44.5770 -61.8410 68° East 570 656 35,000  Level FlightAware ADS-B
Mon 02:24:55 44.6070 -61.7360 68° East 570 656 35,000  Level FlightAware ADS-B
Mon 02:25:31 44.6370 -61.6300 68° East 570 656 35,000  Level FlightAware ADS-B
Mon 02:26:07 44.6680 -61.5250 67° East 570 656 35,000  Level FlightAware ADS-B
Mon 02:26:43 44.6980 -61.4200 68° East 570 656 35,000  Level FlightAware ADS-B
Mon 02:27:19 44.7280 -61.3150 68° East 570 656 35,000  Level FlightAware ADS-B
Mon 02:27:55 44.7580 -61.2090 68° East 570 656 35,000  Level FlightAware ADS-B
Mon 02:28:28 44.8310 -60.8820 72° East 573 659 35,000  Level FlightAware ADS-B
Mon 02:29:07 44.8630 -60.7660 69° East 573 659 35,000  Level FlightAware ADS-B
Mon 02:29:42 44.9010 -60.6180 70° East 577 664 35,000  Level FlightAware ADS-B
Mon 02:30:19 44.9350 -60.4880 70° East 577 664 35,000  Level FlightAware ADS-B
Mon 02:30:56 44.9680 -60.3600 70° East 577 664 35,000  Level FlightAware ADS-B
Mon 02:31:30 45.0000 -60.2380 70° East 577 664 35,000  Level FlightAware ADS-B
Mon 02:32:04 45.0310 -60.1170 70° East 576 663 35,000  Level FlightAware ADS-B
Mon 02:32:40 45.0630 -59.9890 70° East 577 664 35,000  Level FlightAware ADS-B
Mon 02:33:16 45.0960 -59.8620 70° East 578 665 35,000  Level FlightAware ADS-B
Mon 02:33:48 45.1250 -59.7470 70° East 579 666 35,000  Level FlightAware ADS-B
Mon 02:34:26 45.1590 -59.6130 70° East 576 663 35,000  Level FlightAware ADS-B
Mon 02:35:00 45.1890 -59.4920 71° East 576 663 35,000  Level FlightAware ADS-B
Mon 02:35:34 45.2190 -59.3730 70° East 575 662 35,000  Level FlightAware ADS-B
Mon 02:36:10 45.2510 -59.2430 71° East 574 661 35,000  Level FlightAware ADS-B
Mon 02:36:46 45.2810 -59.1210 71° East 575 662 35,000  Level FlightAware ADS-B
Mon 02:37:22 45.3140 -58.9850 71° East 578 665 35,000  Level FlightAware ADS-B
Mon 02:37:54 45.3410 -58.8730 71° East 578 665 35,000  Level FlightAware ADS-B
Mon 02:38:30 45.3730 -58.7420 71° East 579 666 35,000  Level FlightAware ADS-B
Mon 02:39:06 45.4040 -58.6150 71° East 579 666 35,000  Level FlightAware ADS-B
Mon 02:39:42 45.4350 -58.4840 71° East 580 667 35,000  Level FlightAware ADS-B
Mon 02:40:14 45.4620 -58.3690 71° East 579 666 35,000  Level FlightAware ADS-B
Mon 02:40:50 45.4930 -58.2380 71° East 579 666 35,000  Level FlightAware ADS-B
Mon 02:41:26 45.5240 -58.1070 71° East 579 666 35,000  Level FlightAware ADS-B
Mon 02:42:02 45.5550 -57.9770 71° East 581 669 35,000  Level FlightAware ADS-B
Mon 02:42:34 45.5810 -57.8630 72° East 581 669 35,000  Level FlightAware ADS-B
Mon 02:43:08 45.6090 -57.7400 72° East 582 670 35,000  Level FlightAware ADS-B
Mon 02:43:44 45.6400 -57.6090 71° East 582 670 35,000  Level FlightAware ADS-B
Mon 02:44:20 45.6700 -57.4780 72° East 582 670 35,000  Level FlightAware ADS-B
Mon 02:44:55 45.6950 -57.3650 72° East 582 670 35,000  Level FlightAware ADS-B
Mon 02:45:31 45.7210 -57.2530 72° East 582 670 35,000  Level FlightAware ADS-B
Mon 02:46:07 45.7460 -57.1410 72° East 582 670 35,000  Level FlightAware ADS-B
Mon 02:46:43 45.7720 -57.0280 72° East 582 670 35,000  Level FlightAware ADS-B
Mon 02:47:14 45.8130 -56.8380 73° East 585 673 35,000  Level FlightAware ADS-B
Mon 02:47:49 45.8400 -56.7100 73° East 584 672 35,000  Level FlightAware ADS-B
Mon 02:48:27 45.8650 -56.5910 73° East 584 672 35,000  Level FlightAware ADS-B
Mon 02:49:01 45.8940 -56.4450 74° East 587 676 35,000  Level FlightAware ADS-B
Mon 02:49:42 45.9260 -56.2880 74° East 589 678 35,000  Level FlightAware ADS-B
Mon 02:50:18 45.9530 -56.1510 74° East 592 681 35,000  Level FlightAware ADS-B
Mon 02:50:51 45.9770 -56.0310 74° East 591 680 35,000  Level FlightAware ADS-B
Mon 02:51:23 46.0020 -55.9050 74° East 591 680 35,000  Level FlightAware ADS-B
Mon 02:52:02 46.0310 -55.7570 74° East 594 684 35,000  Level FlightAware ADS-B
Mon 02:52:37 46.0570 -55.6260 74° East 595 685 35,000  Level FlightAware ADS-B
Mon 02:53:10 46.0820 -55.5010 74° East 595 685 35,000  Level FlightAware ADS-B
Mon 02:53:46 46.1080 -55.3640 75° East 595 685 35,000  Level FlightAware ADS-B
Mon 02:54:23 46.1350 -55.2230 75° East 597 687 35,000  Level FlightAware ADS-B
Mon 02:54:58 46.1610 -55.0890 74° East 594 684 35,000  Level FlightAware ADS-B
Mon 02:55:32 46.1860 -54.9570 75° East 592 681 35,000  Level FlightAware ADS-B
Mon 02:56:05 46.2080 -54.8360 75° East 592 681 35,000  Level FlightAware ADS-B
Mon 02:56:42 46.2350 -54.6920 75° East 593 682 35,000  Level FlightAware ADS-B
Mon 02:57:19 46.2610 -54.5520 75° East 593 682 35,000  Level FlightAware ADS-B
Mon 02:57:51 46.2840 -54.4280 75° East 594 684 35,000  Level FlightAware ADS-B
Mon 02:58:26 46.3080 -54.2950 75° East 595 685 35,000  Level FlightAware ADS-B
Mon 02:59:03 46.3340 -54.1520 75° East 595 685 35,000  Level FlightAware ADS-B
Mon 02:59:38 46.3590 -54.0170 75° East 597 687 35,000  Level FlightAware ADS-B
Mon 03:00:10 46.3810 -53.8930 76° East 595 685 35,000  Level FlightAware ADS-B
Mon 03:00:47 46.4060 -53.7500 76° East 596 686 35,000  Level FlightAware ADS-B
Mon 03:01:23 46.4310 -53.6100 75° East 597 687 35,000  Level FlightAware ADS-B
Mon 03:01:59 46.4550 -53.4730 76° East 596 686 35,000  Level FlightAware ADS-B
Mon 03:02:31 46.4760 -53.3490 76° East 596 686 35,000  Level FlightAware ADS-B
Mon 03:03:05 46.4990 -53.2170 76° East 595 685 35,000  Level FlightAware ADS-B
Mon 03:03:44 46.5250 -53.0650 76° East 594 684 35,000  Level FlightAware ADS-B
Mon 03:04:13 46.5430 -52.9550 77° East 593 682 35,000  Level FlightAware ADS-B
Mon 03:04:54 46.5690 -52.8010 76° East 595 685 35,000  Level FlightAware ADS-B
Mon 03:05:26 46.5910 -52.6720 76° East 596 686 35,000  Level FlightAware ADS-B
Mon 03:06:01 46.6140 -52.5320 77° East 596 686 35,000  Level FlightAware ADS-B
Mon 03:06:37 46.6370 -52.3940 76° East 594 684 35,000  Level FlightAware ADS-B
Mon 03:07:11 46.6570 -52.2660 77° East 593 682 35,000  Level FlightAware ADS-B
Mon 03:07:47 46.6800 -52.1260 76° East 592 681 35,000  Level FlightAware ADS-B
Mon 03:08:22 46.6980 -52.0150 77° East 592 681 35,000  Level FlightAware ADS-B
Mon 03:09:04 46.7270 -51.8290 77° East 597 687 35,000  Level FlightAware ADS-B
Mon 03:09:37 46.7470 -51.7010 77° East 595 685 35,000  Level FlightAware ADS-B
Mon 03:10:13 46.7690 -51.5600 77° East 596 686 35,000 417 Level FlightAware ADS-B
Mon 03:10:49 46.7920 -51.4140 77° East 601 692 35,500 1,091 Climbing FlightAware ADS-B
Mon 03:11:30 46.8150 -51.2610 78° East 601 692 36,400 1,169 Climbing FlightAware ADS-B
Mon 03:12:06 46.8370 -51.1150 78° East 600 690 37,000 507 Climbing FlightAware ADS-B
Mon 03:12:41 46.8590 -50.9690 78° East 600 690 37,000  Level FlightAware ADS-B
Mon 03:13:18 46.8810 -50.8240 77° East 599 689 37,000  Level FlightAware ADS-B
Mon 03:13:49 46.8990 -50.7030 78° East 600 690 37,000  Level FlightAware ADS-B
Mon 03:14:24 46.9190 -50.5660 78° East 602 693 37,000  Level FlightAware ADS-B
Mon 03:15:21 46.9500 -50.3550 78° East 604 695 37,000  Level FlightAware ADS-B
Mon 03:15:55 46.9710 -50.2020 79° East 604 695 37,000  Level FlightAware ADS-B
Mon 03:16:32 46.9920 -50.0540 78° East 604 695 37,000  Level FlightAware ADS-B
Mon 03:17:06 47.0110 -49.9190 78° East 604 695 37,000  Level FlightAware ADS-B
Mon 03:17:41 47.0320 -49.7790 78° East 605 696 37,000  Level FlightAware ADS-B
Mon 03:18:16 47.0520 -49.6400 78° East 603 694 37,000  Level FlightAware ADS-B
Mon 03:18:52 47.0730 -49.4930 78° East 603 694 37,000  Level FlightAware ADS-B
Mon 03:19:29 47.0930 -49.3450 79° East 602 693 37,000  Level FlightAware ADS-B
Mon 03:19:53 47.1060 -49.2530 78° East 602 693 37,000  Level FlightAware ADS-B
Mon 03:20:30 47.1270 -49.1020 78° East 600 690 37,000  Level FlightAware ADS-B
Mon 03:21:03 47.1440 -48.9770 79° East 599 689 37,000  Level FlightAware ADS-B
Mon 03:21:37 47.1630 -48.8420 78° East 600 690 37,000  Level FlightAware ADS-B
Mon 03:22:17 47.1840 -48.6930 78° East 599 689 37,000  Level FlightAware ADS-B
Mon 03:22:49 47.2000 -48.5720 79° East 598 688 37,000  Level FlightAware ADS-B
Mon 03:23:25 47.2180 -48.4500 78° East 598 688 37,000  Level FlightAware ADS-B
Mon 03:24:01 47.2350 -48.3280 78° East 598 688 37,000  Level FlightAware ADS-B
Mon 03:24:38 47.2530 -48.2030 78° East 598 688 37,000  Level FlightAware ADS-B
Mon 03:25:15 47.2710 -48.0770 78° East 598 688 37,000  Level FlightAware ADS-B
Mon 03:25:51 47.2890 -47.9550 78° East 598 688 37,000  Level FlightAware ADS-B
Mon 03:26:27 47.3060 -47.8330 78° East 598 688 37,000  Level FlightAware ADS-B
Mon 03:27:03 47.3240 -47.7110 78° East 598 688 37,000  Level FlightAware ADS-B
Mon 03:27:40 47.3420 -47.5850 78° East 598 688 37,000  Level FlightAware ADS-B
Mon 03:28:16 47.3600 -47.4630 78° East 598 688 37,000  Level FlightAware ADS-B
Mon 03:28:52 47.3770 -47.3410 78° East 598 688 37,000  Level FlightAware ADS-B
Mon 03:29:28 47.3950 -47.2190 78° East 598 688 37,000  Level FlightAware ADS-B
Mon 03:30:04 47.4120 -47.0960 78° East 598 688 37,000  Level FlightAware ADS-B
Mon 03:30:40 47.4300 -46.9740 78° East 598 688 37,000  Level FlightAware ADS-B
Mon 03:31:17 47.4480 -46.8480 78° East 598 688 37,000  Level FlightAware ADS-B
Mon 03:31:53 47.4660 -46.7260 78° East 598 688 37,000  Level FlightAware ADS-B
Mon 03:39:00 47.6197 -45.2317 81° East  Level FlightAware Approximate
Mon 03:40:00 47.6397 -45.0210 82° East  Level FlightAware Approximate
Mon 03:41:00 47.6594 -44.8102 82° East  Level FlightAware Approximate
Mon 03:42:00 47.6787 -44.5993 82° East  Level FlightAware Approximate
Mon 03:43:00 47.6975 -44.3881 82° East  Level FlightAware Approximate
Mon 03:44:00 47.7160 -44.1768 83° East  Level FlightAware Approximate
Mon 03:45:00 47.7341 -43.9654 83° East  Level FlightAware Approximate
Mon 03:46:00 47.7518 -43.7538 83° East  Level FlightAware Approximate
Mon 03:47:00 47.7692 -43.5421 83° East  Level FlightAware Approximate
Mon 03:48:00 47.7861 -43.3303 83° East  Level FlightAware Approximate
Mon 03:49:00 47.8027 -43.1183 83° East  Level FlightAware Approximate
Mon 03:50:00 47.8188 -42.9061 83° East  Level FlightAware Approximate
Mon 03:51:00 47.8346 -42.6939 84° East  Level FlightAware Approximate
Mon 03:52:00 47.8499 -42.4815 84° East  Level FlightAware Approximate
Mon 03:53:00 47.8649 -42.2690 84° East  Level FlightAware Approximate
Mon 03:54:00 47.8795 -42.0564 84° East  Level FlightAware Approximate
Mon 03:55:00 47.8937 -41.8436 84° East  Level FlightAware Approximate
Mon 03:56:00 47.9075 -41.6307 84° East  Level FlightAware Approximate
Mon 03:57:00 47.9209 -41.4178 85° East  Level FlightAware Approximate
Mon 03:58:00 47.9339 -41.2047 85° East  Level FlightAware Approximate
Mon 03:59:00 47.9466 -40.9915 85° East  Level FlightAware Approximate
Mon 04:00:00 47.9588 -40.7782 85° East  Level FlightAware Approximate
Mon 04:01:00 47.9706 -40.5648 85° East  Level FlightAware Approximate
Mon 04:02:00 47.9821 -40.3513 85° East  Level FlightAware Approximate
Mon 04:03:00 47.9931 -40.1378 86° East  Level FlightAware Approximate
Mon 04:04:00 48.0180 -39.9288 69° East  Level FlightAware Approximate
Mon 04:05:00 48.0683 -39.7280 69° East  Level FlightAware Approximate
Mon 04:06:00 48.1183 -39.5268 70° East  Level FlightAware Approximate
Mon 04:07:00 48.1680 -39.3253 70° East  Level FlightAware Approximate
Mon 04:08:00 48.2173 -39.1233 70° East  Level FlightAware Approximate
Mon 04:09:00 48.2663 -38.9210 70° East  Level FlightAware Approximate
Mon 04:10:00 48.3148 -38.7182 70° East  Level FlightAware Approximate
Mon 04:11:00 48.3631 -38.5151 70° East  Level FlightAware Approximate
Mon 04:12:00 48.4110 -38.3116 70° East  Level FlightAware Approximate
Mon 04:13:00 48.4585 -38.1077 71° East  Level FlightAware Approximate
Mon 04:14:00 48.5056 -37.9035 71° East  Level FlightAware Approximate
Mon 04:15:00 48.5524 -37.6988 71° East  Level FlightAware Approximate
Mon 04:16:00 48.5989 -37.4938 71° East  Level FlightAware Approximate
Mon 04:17:00 48.6449 -37.2884 71° East  Level FlightAware Approximate
Mon 04:18:00 48.6906 -37.0827 71° East  Level FlightAware Approximate
Mon 04:19:00 48.7360 -36.8765 71° East  Level FlightAware Approximate
Mon 04:20:00 48.7809 -36.6700 72° East  Level FlightAware Approximate
Mon 04:21:00 48.8255 -36.4631 72° East  Level FlightAware Approximate
Mon 04:22:00 48.8698 -36.2559 72° East  Level FlightAware Approximate
Mon 04:23:00 48.9136 -36.0483 72° East  Level FlightAware Approximate
Mon 04:24:00 48.9571 -35.8403 72° East  Level FlightAware Approximate
Mon 04:25:00 49.0002 -35.6320 72° East  Level FlightAware Approximate
Mon 04:26:00 49.0429 -35.4232 73° East  Level FlightAware Approximate
Mon 04:27:00 49.0853 -35.2142 73° East  Level FlightAware Approximate
Mon 04:28:00 49.1273 -35.0048 73° East  Level FlightAware Approximate
Mon 04:29:00 49.1689 -34.7950 73° East  Level FlightAware Approximate
Mon 04:30:00 49.2101 -34.5849 73° East  Level FlightAware Approximate
Mon 04:31:00 49.2509 -34.3745 73° East  Level FlightAware Approximate
Mon 04:32:00 49.2914 -34.1637 74° East  Level FlightAware Approximate
Mon 04:33:00 49.3314 -33.9525 74° East  Level FlightAware Approximate
Mon 04:34:00 49.3711 -33.7410 74° East  Level FlightAware Approximate
Mon 04:35:00 49.4104 -33.5292 74° East  Level FlightAware Approximate
Mon 04:36:00 49.4493 -33.3170 74° East  Level FlightAware Approximate
Mon 04:37:00 49.4878 -33.1045 74° East  Level FlightAware Approximate
Mon 04:38:00 49.5260 -32.8916 74° East  Level FlightAware Approximate
Mon 04:39:00 49.5637 -32.6785 75° East  Level FlightAware Approximate
Mon 04:40:00 49.6010 -32.4650 75° East  Level FlightAware Approximate
Mon 04:41:00 49.6380 -32.2511 75° East  Level FlightAware Approximate
Mon 04:42:00 49.6745 -32.0370 75° East  Level FlightAware Approximate
Mon 04:43:00 49.7107 -31.8225 75° East  Level FlightAware Approximate
Mon 04:44:00 49.7465 -31.6077 75° East  Level FlightAware Approximate
Mon 04:45:00 49.7818 -31.3926 76° East  Level FlightAware Approximate
Mon 04:46:00 49.8168 -31.1772 76° East  Level FlightAware Approximate
Mon 04:47:00 49.8514 -30.9615 76° East  Level FlightAware Approximate
Mon 04:48:00 49.8855 -30.7455 76° East  Level FlightAware Approximate
Mon 04:49:00 49.9193 -30.5291 76° East  Level FlightAware Approximate
Mon 04:50:00 49.9527 -30.3125 76° East  Level FlightAware Approximate
Mon 04:51:00 49.9856 -30.0956 77° East  Level FlightAware Approximate
Mon 04:52:00 50.0177 -29.8782 77° East  Level FlightAware Approximate
Mon 04:53:00 50.0490 -29.6604 77° East  Level FlightAware Approximate
Mon 04:54:00 50.0798 -29.4422 77° East  Level FlightAware Approximate
Mon 04:55:00 50.1103 -29.2239 78° East  Level FlightAware Approximate
Mon 04:56:00 50.1403 -29.0052 78° East  Level FlightAware Approximate
Mon 04:57:00 50.1699 -28.7862 78° East  Level FlightAware Approximate
Mon 04:58:00 50.1992 -28.5670 78° East  Level FlightAware Approximate
Mon 04:59:00 50.2280 -28.3475 78° East  Level FlightAware Approximate
Mon 05:00:00 50.2564 -28.1278 78° East  Level FlightAware Approximate
Mon 05:01:00 50.2843 -27.9078 79° East  Level FlightAware Approximate
Mon 05:02:00 50.3119 -27.6875 79° East  Level FlightAware Approximate
Mon 05:03:00 50.3390 -27.4670 79° East  Level FlightAware Approximate
Mon 05:04:00 50.3658 -27.2463 79° East  Level FlightAware Approximate
Mon 05:05:00 50.3921 -27.0253 79° East  Level FlightAware Approximate
Mon 05:06:00 50.4180 -26.8040 80° East  Level FlightAware Approximate
Mon 05:07:00 50.4434 -26.5825 80° East  Level FlightAware Approximate
Mon 05:08:00 50.4685 -26.3608 80° East  Level FlightAware Approximate
Mon 05:09:00 50.4931 -26.1388 80° East  Level FlightAware Approximate
Mon 05:10:00 50.5173 -25.9167 80° East  Level FlightAware Approximate
Mon 05:11:00 50.5411 -25.6942 80° East  Level FlightAware Approximate
Mon 05:12:00 50.5645 -25.4716 81° East  Level FlightAware Approximate
Mon 05:13:00 50.5874 -25.2487 81° East  Level FlightAware Approximate
Mon 05:14:00 50.6099 -25.0257 81° East  Level FlightAware Approximate
Mon 05:15:00 50.6320 -24.8024 81° East  Level FlightAware Approximate
Mon 05:16:00 50.6536 -24.5789 81° East  Level FlightAware Approximate
Mon 05:17:00 50.6749 -24.3552 81° East  Level FlightAware Approximate
Mon 05:18:00 50.6957 -24.1313 82° East  Level FlightAware Approximate
Mon 05:19:00 50.7160 -23.9072 82° East  Level FlightAware Approximate
Mon 05:20:00 50.7360 -23.6829 82° East  Level FlightAware Approximate
Mon 05:21:00 50.7555 -23.4584 82° East  Level FlightAware Approximate
Mon 05:22:00 50.7746 -23.2338 82° East  Level FlightAware Approximate
Mon 05:23:00 50.7932 -23.0089 82° East  Level FlightAware Approximate
Mon 05:24:00 50.8114 -22.7839 83° East  Level FlightAware Approximate
Mon 05:25:00 50.8292 -22.5587 83° East  Level FlightAware Approximate
Mon 05:26:00 50.8465 -22.3334 83° East  Level FlightAware Approximate
Mon 05:27:00 50.8634 -22.1078 83° East  Level FlightAware Approximate
Mon 05:28:00 50.8799 -21.8821 83° East  Level FlightAware Approximate
Mon 05:29:00 50.8960 -21.6563 83° East  Level FlightAware Approximate
Mon 05:30:00 50.9116 -21.4303 84° East  Level FlightAware Approximate
Mon 05:31:00 50.9267 -21.2041 84° East  Level FlightAware Approximate
Mon 05:32:00 50.9415 -20.9778 84° East  Level FlightAware Approximate
Mon 05:33:00 50.9558 -20.7514 84° East  Level FlightAware Approximate
Mon 05:34:00 50.9696 -20.5248 84° East  Level FlightAware Approximate
Mon 05:35:00 50.9830 -20.2981 85° East  Level FlightAware Approximate
Mon 05:36:00 50.9960 -20.0713 85° East  Level FlightAware Approximate
Mon 05:37:00 51.0170 -19.8461 80° East  Level FlightAware Approximate
Mon 05:38:00 51.0415 -19.6215 80° East  Level FlightAware Approximate
Mon 05:39:00 51.0655 -19.3966 80° East  Level FlightAware Approximate
Mon 05:40:00 51.0891 -19.1715 80° East  Level FlightAware Approximate
Mon 05:41:00 51.1122 -18.9462 81° East  Level FlightAware Approximate
Mon 05:42:00 51.1349 -18.7207 81° East  Level FlightAware Approximate
Mon 05:43:00 51.1572 -18.4949 81° East  Level FlightAware Approximate
Mon 05:44:00 51.1791 -18.2689 81° East  Level FlightAware Approximate
Mon 05:45:00 51.2005 -18.0427 81° East  Level FlightAware Approximate
Mon 05:46:00 51.2215 -17.8163 81° East  Level FlightAware Approximate
Mon 05:47:00 51.2420 -17.5897 82° East  Level FlightAware Approximate
Mon 05:48:00 51.2633 -17.3632 81° East  Level FlightAware Approximate
Mon 05:49:00 51.2849 -17.1366 81° East  Level FlightAware Approximate
Mon 05:50:00 51.3061 -16.9099 81° East  Level FlightAware Approximate
Mon 05:51:00 51.3269 -16.6829 82° East  Level FlightAware Approximate
Mon 05:52:00 51.3472 -16.4557 82° East  Level FlightAware Approximate
Mon 05:53:00 51.3671 -16.2284 82° East  Level FlightAware Approximate
Mon 05:54:00 51.3866 -16.0008 82° East  Level FlightAware Approximate
Mon 05:55:00 51.4056 -15.7730 82° East  Level FlightAware Approximate
Mon 05:56:00 51.4241 -15.5451 82° East  Level FlightAware Approximate
Mon 05:57:00 51.4422 -15.3170 83° East  Level FlightAware Approximate
Mon 05:58:00 51.4599 -15.0886 83° East  Level FlightAware Approximate
Mon 05:59:00 51.4746 -14.8597 85° East  Level FlightAware Approximate
Mon 06:00:00 51.4882 -14.6306 84° East  Level FlightAware Approximate
Mon 06:01:00 51.5038 -14.4016 84° East  Level FlightAware Approximate
Mon 06:02:00 51.5190 -14.1726 84° East  Level FlightAware Approximate
Mon 06:03:00 51.5337 -13.9433 84° East  Level FlightAware Approximate
Mon 06:04:00 51.5480 -13.7140 84° East  Level FlightAware Approximate
Mon 06:05:00 51.5618 -13.4844 84° East  Level FlightAware Approximate
Mon 06:06:00 51.5752 -13.2548 85° East  Level FlightAware Approximate
Mon 06:07:00 51.5881 -13.0250 85° East  Level FlightAware Approximate
Mon 06:08:00 51.6006 -12.7951 85° East  Level FlightAware Approximate
Mon 06:09:00 51.6126 -12.5650 85° East  Level FlightAware Approximate
Mon 06:10:00 51.6242 -12.3349 85° East  Level FlightAware Approximate
Mon 06:11:00 51.6353 -12.1046 85° East  Level FlightAware Approximate
Mon 06:12:00 51.6460 -11.8742 86° East  Level FlightAware Approximate
Mon 06:13:00 51.6562 -11.6437 86° East  Level FlightAware Approximate
Mon 06:14:00 51.6660 -11.4131 86° East  Level FlightAware Approximate
Mon 06:15:00 51.6753 -11.1825 86° East  Level FlightAware Approximate
Mon 06:16:00 51.6842 -10.9517 86° East  Level FlightAware Approximate
Mon 06:17:00 51.6926 -10.7208 87° East  Level FlightAware Approximate
Mon 06:18:00 51.7006 -10.4899 87° East  Level FlightAware Approximate
Mon 06:19:00 51.7081 -10.2588 87° East  Level FlightAware Approximate
Mon 06:20:00 51.7152 -10.0277 87° East  Level FlightAware Approximate
Mon 06:21:00 51.7218 -9.7965 87° East  Level FlightAware Approximate
Mon 06:21:47 51.4490 -11.0010 87° East 494 568 37,000  Level FlightAware ADS-B
Mon 06:22:00 51.7280 -9.5653 87° East  Level FlightAware Approximate
Mon 06:22:21 51.4650 -10.8410 81° East 496 571 37,000  Level FlightAware ADS-B
Mon 06:22:59 51.4760 -10.7210 82° East 497 572 37,000  Level FlightAware ADS-B
Mon 06:23:35 51.4870 -10.6100 81° East 497 572 37,000  Level FlightAware ADS-B
Mon 06:24:35 51.5080 -10.3600 82° East 474 545 37,000  Level FlightAware ADS-B
Mon 06:25:16 51.5220 -10.2020 82° East 504 580 37,000  Level FlightAware ADS-B
Mon 06:25:52 51.5340 -10.0700 82° East 507 583 37,000  Level FlightAware ADS-B
Mon 06:26:26 51.5450 -9.9450 82° East 508 585 37,000  Level FlightAware ADS-B
Mon 06:27:02 51.5560 -9.8120 82° East 510 587 37,000  Level FlightAware ADS-B
Mon 06:27:35 51.5660 -9.6850 83° East 509 586 37,000  Level FlightAware ADS-B
Mon 06:28:10 51.5770 -9.5540 82° East 509 586 37,000  Level FlightAware ADS-B
Mon 06:28:46 51.5880 -9.4210 82° East 507 583 37,000  Level FlightAware ADS-B
Mon 06:29:21 51.5990 -9.2860 82° East 506 582 37,000  Level FlightAware ADS-B
Mon 06:29:56 51.6090 -9.1590 83° East 507 583 37,000  Level FlightAware ADS-B
Mon 06:30:31 51.6190 -9.0250 83° East 506 582 37,000  Level FlightAware ADS-B
Mon 06:31:06 51.6290 -8.8960 83° East 506 582 37,000  Level FlightAware ADS-B
Mon 06:31:41 51.6390 -8.7640 83° East 506 582 37,000  Level FlightAware ADS-B
Mon 06:32:14 51.6485 -8.6327 83° East 462 532 37,000  Level FlightAware UK
Mon 06:32:18 51.6490 -8.6260 83° East 508 585 37,000  Level FlightAware ADS-B
Mon 06:32:53 51.6590 -8.4920 83° East 508 585 37,000  Level FlightAware ADS-B
Mon 06:33:28 51.6680 -8.3590 84° East 510 587 37,000 -200 Level FlightAware ADS-B
Mon 06:33:53 51.6745 -8.2717 83° East 510 587 36,800 -787 Descending FlightAware ADS-B
Mon 06:34:29 51.6844 -8.1302 84° East 504 580 36,200 -963 Descending FlightAware ADS-B
Mon 06:35:14 51.6960 -7.9670 83° East 503 579 35,500 -982 Descending FlightAware ADS-B
Mon 06:35:24 51.6983 -7.9266 85° East 506 582 35,300 -1,100 Descending FlightAware ADS-B
Mon 06:36:14 51.7135 -7.7327 85° East 456 525 34,400 -964 Descending FlightAware UK
Mon 06:36:20 51.7122 -7.7166 85° East 501 577 34,400 -1,000 Level FlightAware ADS-B
Mon 06:36:50 51.7228 -7.5991 85° East 450 518 33,800 -1,105 Descending FlightAware UK
Mon 06:36:58 51.7210 -7.5760 85° East 495 570 33,700 -900 Descending FlightAware ADS-B
Mon 06:37:30 51.7290 -7.4600 84° East 484 557 33,200 -583 Descending FlightAware ADS-B
Mon 06:38:10 51.7370 -7.3220 85° East 486 559 33,000 -167 Descending FlightAware ADS-B
Mon 06:38:42 51.7450 -7.2040 84° East 486 559 33,000  Level FlightAware ADS-B
Mon 06:39:15 51.7520 -7.0850 85° East 485 558 33,000  Level FlightAware ADS-B
Mon 06:39:51 51.7498 -6.9507 85° East 466 536 33,000  Level FlightAware UK
Mon 06:39:53 51.7500 -6.9470 85° East 500 575 33,000  Level FlightAware ADS-B
Mon 06:40:23 51.7470 -6.8315 92° East 505 581 33,000  Level FlightAware ADS-B (EGCW)
Mon 06:41:00 51.7437 -6.6927 92° East 508 585 33,000  Level FlightAware ADS-B (EGCW)
Mon 06:41:33 51.7407 -6.5707 92° East 511 588 33,000  Level FlightAware ADS-B (EGCW)
Mon 06:42:02 51.7415 -6.4606 89° East 519 597 33,000  Level FlightAware ADS-B (EGCW)
Mon 06:42:47 51.7570 -6.2840 82° East 519 597 33,000  Level FlightAware ADS-B
Mon 06:43:21 51.7686 -6.1525 82° East 468 539 33,000  Level FlightAware UK
Mon 06:43:26 51.7699 -6.1376 82° East 519 597 33,000  Level FlightAware ADS-B (EGCW)
Mon 06:44:04 51.7737 -5.9930 88° East 512 589 33,000  Level FlightAware ADS-B (EGCW)
Mon 06:44:46 51.7635 -5.8293 96° East 514 592 33,000  Level FlightAware ADS-B (EGCW)
Mon 06:45:23 51.7550 -5.6950 96° East 513 590 33,000  Level FlightAware ADS-B
Mon 06:45:55 51.7470 -5.5730 96° East 514 592 33,000  Level FlightAware ADS-B
Mon 06:45:57 51.7462 -5.5584 96° East 470 541 33,000  Level FlightAware UK
Mon 06:46:08 51.7442 -5.5281 96° East 515 593 33,000  Level FlightAware ADS-B (EGCW)
Mon 06:46:48 51.7344 -5.3668 96° East 517 595 33,000  Level FlightAware ADS-B (EGCW)
Mon 06:47:32 51.7262 -5.1973 94° East 514 592 33,000  Level FlightAware ADS-B (KAPA)
Mon 06:48:03 51.7200 -5.0777 95° East 514 592 33,000  Level FlightAware ADS-B (EGCW)
Mon 06:48:18 51.7169 -5.0210 95° East 513 590 33,000  Level FlightAware ADS-B (EGDX / DGX)
Mon 06:48:28 51.7149 -4.9836 95° East 512 589 33,000  Level FlightAware ADS-B (EGDX / DGX)
Mon 06:48:47 51.7110 -4.9124 95° East 512 589 33,000  Level FlightAware ADS-B
Mon 06:49:22 51.7036 -4.7793 95° East 511 588 33,000  Level FlightAware ADS-B (EGCW)
Mon 06:49:52 51.6973 -4.6671 95° East 512 589 33,000  Level FlightAware ADS-B (EGCW)
Mon 06:50:28 51.6973 -4.6671 North 512 589 33,000  Level FlightAware ADS-B (EGDX / DGX)
Mon 06:50:59 51.6822 -4.4091 95° East 512 589 33,000  Level FlightAware ADS-B
Mon 06:51:10 51.6786 -4.3700 98° East 509 586 33,000 -581 Level FlightAware ADS-B
Mon 06:51:30 51.6973 -4.6671 276° West 513 590 32,700 -1,200 Descending FlightAware ADS-B (EGDX / DGX)
Mon 06:51:35 51.6618 -4.2809 98° East 502 578 32,500 -2,118 Descending FlightAware ADS-B (EGCW)
Mon 06:51:47 51.6517 -4.2369 110° East 497 572 32,100 -1,867 Descending FlightAware ADS-B
Mon 06:52:20 51.6254 -4.1231 110° East 501 577 31,100 -1,867 Descending FlightAware ADS-B
Mon 06:52:32 51.6261 -4.1262 290° West 501 577 30,700 -1,750 Descending FlightAware ADS-B (EGDX / DGX)
Mon 06:52:44 51.6068 -4.0422 110° East 495 570 30,400 -1,826 Descending FlightAware ADS-B (EGCW)
Mon 06:52:55 51.5989 -4.0076 110° East 497 572 30,000 -2,000 Descending FlightAware ADS-B (EGCW)
Mon 06:53:05 51.5906 -3.9715 110° East 495 570 29,700 -1,800 Descending FlightAware ADS-B (EGCW)
Mon 06:53:15 51.5824 -3.9354 110° East 494 568 29,400 -1,895 Descending FlightAware ADS-B (EGDM)
Mon 06:53:24 51.5754 -3.9046 110° East 494 568 29,100 -2,000 Descending FlightAware ADS-B (EGDM)
Mon 06:53:36 51.5656 -3.8609 110° East 489 563 28,700 -1,895 Descending FlightAware ADS-B (EGCW)
Mon 06:54:02 51.5527 -3.7694 103° East 487 560 27,900 -1,935 Descending FlightAware ADS-B
Mon 06:54:07 51.5989 -4.0076 287° West 488 562 27,700 -2,182 Descending FlightAware ADS-B (EGDX / DGX)
Mon 06:54:24 51.5454 -3.6582 104° East 479 551 27,100 -1,355 Descending FlightAware ADS-B
Mon 06:54:38 51.5989 -4.0076 284° West 480 552 27,000 -133 Descending FlightAware ADS-B (EGDX / DGX)
Mon 06:55:09 51.5369 -3.5402 102° East 446 513 27,000  Level FlightAware ADS-B (EGDM)
Mon 06:55:39 51.5299 -3.4436 97° East 424 488 27,000  Level FlightAware ADS-B (EGDX / DGX)
Mon 06:56:12 51.5227 -3.3468 97° East 411 473 27,000  Level FlightAware ADS-B (EGDM)
Mon 06:56:43 51.5152 -3.2490 97° East 410 472 27,000 -286 Level FlightAware ADS-B
Mon 06:57:15 51.5078 -3.1544 97° East 410 472 26,700 -873 Descending FlightAware ADS-B
Mon 06:57:38 51.5028 -3.0920 97° East 408 470 26,200 -1,029 Descending FlightAware ADS-B (EGDX / DGX)
Mon 06:57:50 51.4985 -3.0484 99° East 402 463 26,100 -923 Descending FlightAware ADS-B
Mon 06:58:04 51.4911 -3.0080 106° East 397 457 25,800 -1,143 Descending FlightAware ADS-B (EGDM)
Mon 06:58:11 51.4867 -2.9886 110° East 397 457 25,700 -600 Descending FlightAware ADS-B
Mon 06:58:14 51.4848 -2.9803 110° East 392 451 25,700 -800 Level FlightAware ADS-B
Mon 06:58:26 51.4802 -2.9605 111° Southeast 394 453 25,500  Descending FlightAware ADS-B (EGDM)
Mon 06:58:31 51.5007 -3.0678 287° West 406 467 25,700 -667 Climbing FlightAware ADS-B
Mon 06:58:35 51.4719 -2.9250 108° East 393 452 25,400 -2,000 Descending FlightAware ADS-B
Mon 06:58:49 51.4625 -2.8853 111° Southeast 396 456 25,100 -1,250 Descending FlightAware ADS-B (EGCW)
Mon 06:58:59 51.4560 -2.8579 111° Southeast 395 455 24,900 -1,091 Descending FlightAware ADS-B (EGCW)
Mon 06:59:00 51.4553 -2.8550 112° Southeast 395 455 24,900  Level FlightAware ADS-B
Mon 06:59:04 51.4527 -2.8440 111° Southeast 391 450 24,900 -857 Level FlightAware ADS-B
Mon 06:59:14 51.4475 -2.8220 111° Southeast 392 451 24,700 -1,500 Descending FlightAware ADS-B (EGDM)
Mon 06:59:24 51.4400 -2.7903 111° Southeast 391 450 24,400 -1,412 Descending FlightAware ADS-B (EGDM)
Mon 06:59:31 51.4354 -2.7714 111° Southeast 391 450 24,300 -1,091 Descending FlightAware ADS-B
Mon 06:59:35 51.4327 -2.7599 111° Southeast 387 445 24,200 -1,200 Descending FlightAware ADS-B (KAPA)
Mon 06:59:46 51.4261 -2.7325 111° Southeast 385 443 24,000 -1,429 Descending FlightAware ADS-B (KAPA)
Mon 06:59:56 51.4194 -2.7052 111° Southeast 383 441 23,700 -1,412 Descending FlightAware ADS-B (KAPA)
Mon 07:00:03 51.4149 -2.6865 111° Southeast 387 445 23,600 -1,200 Descending FlightAware ADS-B
Mon 07:00:11 51.4099 -2.6661 112° Southeast 382 440 23,400 -1,579 Descending FlightAware ADS-B
Mon 07:00:22 51.4023 -2.6352 111° Southeast 382 440 23,100 -1,385 Descending FlightAware ADS-B
Mon 07:00:37 51.3928 -2.5956 111° Southeast 385 443 22,800 -1,304 Descending FlightAware ADS-B
Mon 07:00:45 51.3883 -2.5742 109° East 384 442 22,600 -1,600 Descending FlightAware ADS-B
Mon 07:00:52 51.3847 -2.5550 107° East 385 443 22,400 -1,800 Descending FlightAware ADS-B
Mon 07:00:55 51.3834 -2.5468 104° East 388 447 22,300 -1,500 Descending FlightAware ADS-B
Mon 07:01:00 51.3820 -2.5333 99° East 390 449 22,200 -923 Descending FlightAware ADS-B (EGDM)
Mon 07:01:08 51.3814 -2.5110 93° East 394 453 22,100 -1,250 Descending FlightAware ADS-B
Mon 07:01:24 51.3841 -2.4626 85° East 396 456 21,700 -1,543 Descending FlightAware ADS-B
Mon 07:01:43 51.3883 -2.4069 83° East 394 453 21,200 -1,548 Descending FlightAware ADS-B
Mon 07:01:55 51.3910 -2.3725 83° East 394 453 20,900 -1,273 Descending FlightAware ADS-B
Mon 07:02:16 51.3935 -2.3399 83° East 392 451 20,500 -1,742 Descending FlightAware ADS-B
Mon 07:02:26 51.3978 -2.2850 83° East 391 450 20,000 -2,333 Descending FlightAware ADS-B
Mon 07:02:34 51.3994 -2.2632 83° East 387 445 19,800 -1,714 Descending FlightAware ADS-B
Mon 07:02:40 51.3991 -2.2668 263° West 385 443 19,600 -1,875 Descending FlightAware ADS-B (EGDX / DGX)
Mon 07:02:50 51.4005 -2.2166 88° East 383 441 19,300 -1,600 Descending FlightAware ADS-B (EGDX / DGX)
Mon 07:02:55 51.3998 -2.2018 94° East 381 438 19,200 -1,200 Descending FlightAware ADS-B
Mon 07:03:00 51.3990 -2.1883 95° East 377 434 19,100 -1,714 Descending FlightAware ADS-B
Mon 07:03:30 51.3936 -2.1091 96° East 372 428 18,200 -2,100 Descending FlightAware ADS-B (EGDM)
Mon 07:03:40 51.3936 -2.1083 94° East 370 426 17,700 -1,412 Descending FlightAware ADS-B (EGDX / DGX)
Mon 07:04:04 51.3869 -2.0144 96° East 366 421 17,400 -960 Descending FlightAware ADS-B
Mon 07:04:05 51.3866 -2.0109 98° East 366 421 17,300 -1,800 Descending FlightAware ADS-B
Mon 07:04:14 51.3848 -1.9863 97° East 365 420 17,100 -1,500 Descending FlightAware ADS-B
Mon 07:04:25 51.3829 -1.9605 97° East 365 420 16,800 -1,429 Descending FlightAware ADS-B (EGDM)
Mon 07:04:35 51.3810 -1.9344 97° East 364 419 16,600 -1,091 Descending FlightAware ADS-B (EGDM)
Mon 07:04:36 51.3805 -1.9293 98° East 363 418 16,600 -1,800 Level FlightAware ADS-B
Mon 07:04:45 51.3789 -1.9078 97° East 362 417 16,300 -1,579 Descending FlightAware ADS-B (EGDM)
Mon 07:04:55 51.3766 -1.8779 97° East 361 415 16,100 -1,304 Descending FlightAware ADS-B (EGDM)
Mon 07:05:08 51.3738 -1.8436 97° East 358 412 15,800 5,053 Descending FlightAware ADS-B
Mon 07:05:14 51.3726 -1.8279 97° East 355 409 17,700 -1,091 Climbing FlightAware ADS-B
Mon 07:05:30 51.3693 -1.7862 97° East 350 403 15,400 -5,032 Descending FlightAware ADS-B
Mon 07:05:45 51.3662 -1.7485 97° East 348 400 15,100 -1,263 Descending FlightAware ADS-B
Mon 07:05:49 51.3652 -1.7372 98° East 346 398 15,000 -1,200 Descending FlightAware ADS-B
Mon 07:06:00 51.3632 -1.7112 97° East 344 396 14,800 -1,143 Descending FlightAware ADS-B
Mon 07:06:10 51.3613 -1.6854 97° East 343 395 14,600 -1,200 Descending FlightAware ADS-B
Mon 07:06:20 51.3596 -1.6603 96° East 339 390 14,400 -1,263 Descending FlightAware ADS-B
Mon 07:06:29 51.3579 -1.6380 97° East 341 392 14,200 -1,286 Descending FlightAware ADS-B
Mon 07:06:34 51.3609 -1.6790 277° West 339 390 14,100 -600 Descending FlightAware ADS-B
Mon 07:06:39 51.3562 -1.6141 97° East 340 391 14,100 -231 Level FlightAware ADS-B
Mon 07:07:00 51.3520 -1.5590 97° East 342 394 14,000 -200 Descending FlightAware ADS-B
Mon 07:07:09 51.3505 -1.5392 97° East 339 390 14,000  Level FlightAware ADS-B (EGDM)
Mon 07:07:17 51.3490 -1.5186 97° East 337 388 14,000  Level FlightAware ADS-B
Mon 07:07:27 51.3472 -1.4938 97° East 337 388 14,000  Level FlightAware ADS-B
Mon 07:07:31 51.3464 -1.4832 97° East 338 389 14,000  Level FlightAware ADS-B
Mon 07:07:32 51.3529 -1.5712 277° West 339 390 14,000  Level FlightAware ADS-B
Mon 07:07:50 51.3428 -1.4361 97° East 339 390 14,000  Level FlightAware ADS-B
Mon 07:08:03 51.3405 -1.4054 97° East 339 390 14,000  Level FlightAware ADS-B
Mon 07:08:09 51.3393 -1.3905 97° East 340 391 14,000  Level FlightAware ADS-B
Mon 07:08:16 51.3378 -1.3699 97° East 339 390 14,000 -250 Level FlightAware ADS-B
Mon 07:08:33 51.3348 -1.3302 97° East 339 390 13,900 -545 Descending FlightAware ADS-B
Mon 07:08:38 51.3339 -1.3185 97° East 337 388 13,800 -1,034 Descending FlightAware ADS-B
Mon 07:09:02 51.3291 -1.2582 97° East 336 387 13,400 -900 Descending FlightAware ADS-B
Mon 07:09:18 51.3271 -1.2181 95° East 336 387 13,200 -1,412 Descending FlightAware ADS-B
Mon 07:09:19 51.3270 -1.2159 93° East 337 388 13,000 -1,161 Descending FlightAware ADS-B
Mon 07:09:49 51.3259 -1.1411 91° East 338 389 12,600 -774 Descending FlightAware ADS-B
Mon 07:09:50 51.3260 -1.1474 272° West 338 389 12,600  Level FlightAware ADS-B (EGDM)
Mon 07:09:53 51.3258 -1.1322 91° East 338 389 12,600 -857 Level FlightAware ADS-B (LSXS)
Mon 07:10:04 51.3254 -1.1081 92° East 335 386 12,400 -1,111 Descending FlightAware ADS-B (LSXS)
Mon 07:10:20 51.3244 -1.0648 92° East 332 382 12,100 -1,059 Descending FlightAware ADS-B
Mon 07:10:21 51.3244 -1.0633 89° East 332 382 12,100 -857 Level FlightAware ADS-B
Mon 07:10:34 51.3236 -1.0317 92° East 329 379 11,900 -1,034 Descending FlightAware ADS-B
Mon 07:10:50 51.3225 -0.9922 92° East 324 373 11,600 -1,000 Descending FlightAware ADS-B
Mon 07:11:10 51.3212 -0.9462 93° East 319 367 11,300 -857 Descending FlightAware ADS-B (LSXS)
Mon 07:11:18 51.3206 -0.9268 93° East 316 364 11,200 -1,000 Descending FlightAware ADS-B
Mon 07:11:40 51.3190 -0.8747 93° East 308 354 10,800 -1,000 Descending FlightAware ADS-B (EGDM)
Mon 07:11:48 51.3185 -0.8579 93° East 306 352 10,700 -1,000 Descending FlightAware ADS-B
Mon 07:12:10 51.3171 -0.8104 93° East 298 343 10,300 -968 Descending FlightAware ADS-B (LSXS)
Mon 07:12:19 51.3163 -0.7893 93° East 296 341 10,200 -514 Descending FlightAware ADS-B
Mon 07:12:45 51.3146 -0.7327 93° East 283 326 10,000 -400 Descending FlightAware ADS-B
Mon 07:12:49 51.3143 -0.7247 94° East 283 326 10,000  Level FlightAware ADS-B
Mon 07:13:17 51.3125 -0.6672 93° East 284 327 10,000  Level FlightAware ADS-B
Mon 07:13:21 51.3122 -0.6592 93° East 284 327 10,000  Level FlightAware ADS-B
Mon 07:13:48 51.3104 -0.6062 93° East 282 325 10,000  Level FlightAware ADS-B (LSXS)
Mon 07:13:51 51.3100 -0.5952 94° East 283 326 10,000  Level FlightAware ADS-B
Mon 07:14:18 51.3082 -0.5403 93° East 284 327 10,000  Level FlightAware ADS-B (LSXS)
Mon 07:14:22 51.3079 -0.5318 93° East 284 327 10,000  Level FlightAware ADS-B
Mon 07:14:53 51.3057 -0.4675 93° East 285 328 10,000  Level FlightAware ADS-B
Mon 07:15:11 51.3043 -0.4288 93° East 288 331 10,000  Level FlightAware ADS-B
Mon 07:15:17 51.3033 -0.4169 98° East 285 328 10,000  Level FlightAware ADS-B
Mon 07:15:18 51.3034 -0.4176 283° West 282 325 10,000  Level FlightAware ADS-B
Mon 07:15:21 51.3017 -0.4083 106° East 280 322 10,000  Level FlightAware ADS-B
Mon 07:15:26 51.2988 -0.3980 114° Southeast 276 318 10,000  Level FlightAware ADS-B
Mon 07:15:27 51.3021 -0.4101 294° West 274 315 10,000  Level FlightAware ADS-B
Mon 07:15:34 51.2937 -0.3846 118° Southeast 270 311 10,000  Level FlightAware ADS-B
Mon 07:15:40 51.3036 -0.4199 294° West 271 312 10,000  Level FlightAware ADS-B
Mon 07:15:41 51.2890 -0.3740 117° Southeast 266 306 10,000  Level FlightAware ADS-B
Mon 07:16:01 51.2742 -0.3423 127° Southeast 264 304 10,000  Level FlightAware ADS-B
Mon 07:16:11 51.2677 -0.3274 125° Southeast 264 304 10,000  Level FlightAware ADS-B
Mon 07:16:29 51.2550 -0.2963 123° Southeast 267 307 10,000  Level FlightAware ADS-B
Mon 07:16:41 51.2473 -0.2768 122° Southeast 264 304 10,000  Level FlightAware ADS-B
Mon 07:16:50 51.2407 -0.2650 132° Southeast 255 293 10,000  Level FlightAware ADS-B
Mon 07:16:54 51.2367 -0.2598 141° Southeast 251 289 10,000  Level FlightAware ADS-B
Mon 07:16:55 51.2361 -0.2591 143° Southeast 244 281 10,000  Level FlightAware ADS-B (LSXS)
Mon 07:16:59 51.2320 -0.2550 148° Southeast 249 287 10,000  Level FlightAware ADS-B
Mon 07:17:05 51.2263 -0.2507 155° Southeast 244 281 10,000  Level FlightAware ADS-B (LSXS)
Mon 07:17:09 51.2229 -0.2488 160° South 241 277 10,000  Level FlightAware ADS-B
Mon 07:17:16 51.2140 -0.2459 169° South 235 270 10,000  Level FlightAware ADS-B
Mon 07:17:20 51.2095 -0.2455 177° South 232 267 10,000  Level FlightAware ADS-B
Mon 07:17:22 51.2077 -0.2455 181° South 230 265 10,000 -750 Level FlightAware ADS-B
Mon 07:17:28 51.2019 -0.2464 185° South 228 262 9,900 -667 Descending FlightAware ADS-B
Mon 07:17:31 51.1994 -0.2470 190° South 225 259 9,900 -1,500 Level FlightAware ADS-B
Mon 07:17:32 51.1971 -0.2479 192° South 224 258 9,800 -1,714 Descending FlightAware ADS-B
Mon 07:17:38 51.1913 -0.2511 199° South 222 255 9,700 -667 Descending FlightAware ADS-B
Mon 07:17:41 51.1897 -0.2522 203° Southwest 221 254 9,700 -857 Level FlightAware ADS-B
Mon 07:17:45 51.1852 -0.2561 208° Southwest 219 252 9,600 -750 Descending FlightAware ADS-B
Mon 07:17:49 51.1823 -0.2592 214° Southwest 219 252 9,600 -667 Level FlightAware ADS-B
Mon 07:17:54 51.1783 -0.2644 219° Southwest 218 251 9,500 -1,200 Descending FlightAware ADS-B
Mon 07:17:59 51.1746 -0.2705 226° Southwest 217 250 9,400 -1,200 Descending FlightAware ADS-B
Mon 07:18:04 51.1714 -0.2773 233° Southwest 217 250 9,300 -1,200 Descending FlightAware ADS-B
Mon 07:18:09 51.1692 -0.2831 239° Southwest 217 250 9,200 -857 Descending FlightAware ADS-B
Mon 07:18:11 51.1683 -0.2859 243° Southwest 217 250 9,200 -1,200 Level FlightAware ADS-B
Mon 07:18:14 51.1670 -0.2906 246° West 218 251 9,100 -1,200 Descending FlightAware ADS-B
Mon 07:18:16 51.1662 -0.2940 249° West 219 252 9,100 -1,000 Level FlightAware ADS-B
Mon 07:18:20 51.1650 -0.3006 254° West 219 252 9,000 -1,000 Descending FlightAware ADS-B
Mon 07:18:22 51.1679 -0.2874 71° East 218 251 9,000  Level FlightAware ADS-B
Mon 07:18:25 51.1699 -0.2811 63° Northeast 220 253 9,000  Level FlightAware ADS-B
Mon 07:18:29 51.1639 -0.3118 253° West 223 257 9,000  Level FlightAware ADS-B
Mon 07:18:31 51.1637 -0.3172 266° West 224 258 9,000  Level FlightAware ADS-B
Mon 07:18:36 51.1641 -0.3262 274° West 228 262 9,000  Level FlightAware ADS-B
Mon 07:18:38 51.1643 -0.3298 276° West 231 266 9,000  Level FlightAware ADS-B
Mon 07:18:40 51.1647 -0.3326 282° West 231 266 9,000  Level FlightAware ADS-B
Mon 07:18:44 51.1656 -0.3384 284° West 234 269 9,000  Level FlightAware ADS-B
Mon 07:18:46 51.1666 -0.3432 288° West 236 272 9,000  Level FlightAware ADS-B
Mon 07:18:52 51.1693 -0.3528 294° West 241 277 9,000  Level FlightAware ADS-B
Mon 07:18:53 51.1684 -0.3501 118° Southeast 243 280 9,000  Level FlightAware ADS-B
Mon 07:18:56 51.1705 -0.3561 299° West 247 284 9,000  Level FlightAware ADS-B
Mon 07:19:00 51.1743 -0.3646 305° West 247 284 9,000  Level FlightAware ADS-B
Mon 07:19:02 51.1751 -0.3661 311° West 250 288 9,000  Level FlightAware ADS-B (LSXS)
Mon 07:19:05 51.1780 -0.3710 313° West 253 291 9,000  Level FlightAware ADS-B
Mon 07:19:10 51.1825 -0.3770 320° Northwest 257 296 9,000  Level FlightAware ADS-B
Mon 07:19:12 51.1849 -0.3796 326° Northwest 256 295 9,000  Level FlightAware ADS-B (LSXS)
Mon 07:19:13 51.1864 -0.3811 327° Northwest 263 303 9,000  Level FlightAware ADS-B
Mon 07:19:18 51.1919 -0.3854 334° Northwest 268 308 9,000  Level FlightAware ADS-B
Mon 07:19:21 51.1936 -0.3864 340° North 271 312 9,000  Level FlightAware ADS-B
Mon 07:19:22 51.1962 -0.3878 342° North 272 313 9,000  Level FlightAware ADS-B
Mon 07:19:25 51.1998 -0.3893 345° North 274 315 9,000  Level FlightAware ADS-B
Mon 07:19:31 51.2075 -0.3908 353° North 278 320 9,000  Level FlightAware ADS-B
Mon 07:19:32 51.2083 -0.3908 358° North 278 320 9,000  Level FlightAware ADS-B
Mon 07:19:36 51.2132 -0.3909 360° North 280 322 9,000  Level FlightAware ADS-B
Mon 07:19:41 51.2201 -0.3908 North 280 322 9,000  Level FlightAware ADS-B
Mon 07:19:45 51.2248 -0.3911 358° North 278 320 9,000  Level FlightAware ADS-B
Mon 07:19:46 51.2243 -0.3910 175° South 278 320 9,000  Level FlightAware ADS-B
Mon 07:19:49 51.2310 -0.3920 354° North 276 318 9,000  Level FlightAware ADS-B
Mon 07:19:56 51.2378 -0.3940 350° North 274 315 9,000  Level FlightAware ADS-B
Mon 07:20:02 51.2462 -0.3977 345° North 271 312 9,000  Level FlightAware ADS-B
Mon 07:20:12 51.2569 -0.4040 340° North 259 298 9,000  Level FlightAware ADS-B (LSXS)
Mon 07:20:16 51.2622 -0.4073 339° North 267 307 9,000 -300 Level FlightAware ADS-B
Mon 07:20:32 51.2804 -0.4190 338° Northwest 263 303 8,900 -720 Descending FlightAware ADS-B
Mon 07:20:41 51.2910 -0.4247 341° North 264 304 8,700 -1,200 Descending FlightAware ADS-B
Mon 07:20:42 51.2913 -0.4248 351° North 268 308 8,700 -1,500 Level FlightAware ADS-B (LSXS)
Mon 07:20:45 51.2966 -0.4261 351° North 272 313 8,600 -2,000 Descending FlightAware ADS-B
Mon 07:20:48 51.2996 -0.4263 357° North 276 318 8,500 -2,000 Descending FlightAware ADS-B
Mon 07:20:51 51.3040 -0.4259 North 280 322 8,400 -1,500 Descending FlightAware ADS-B
Mon 07:20:56 51.3102 -0.4240 10° North 284 327 8,300 -1,000 Descending FlightAware ADS-B
Mon 07:20:57 51.3111 -0.4237 13° North 285 328 8,300 -1,200 Level FlightAware ADS-B
Mon 07:21:01 51.3162 -0.4208 20° North 287 330 8,200 -1,500 Descending FlightAware ADS-B
Mon 07:21:05 51.3219 -0.4160 28° Northeast 289 333 8,100 -1,000 Descending FlightAware ADS-B
Mon 07:21:07 51.3197 -0.4181 211° Southwest 290 334 8,100  Level FlightAware ADS-B
Mon 07:21:10 51.3270 -0.4099 35° Northeast 291 335 8,100 -857 Level FlightAware ADS-B
Mon 07:21:14 51.3303 -0.4047 44° Northeast 286 329 8,000 -857 Descending FlightAware ADS-B (LSXS)
Mon 07:21:17 51.3332 -0.3992 50° Northeast 292 336 8,000  Level FlightAware ADS-B
Mon 07:21:20 51.3353 -0.3941 56° Northeast 291 335 8,000  Level FlightAware ADS-B
Mon 07:21:24 51.3379 -0.3866 62° Northeast 291 335 8,000  Level FlightAware ADS-B
Mon 07:21:28 51.3389 -0.3833 64° Northeast 289 333 8,000  Level FlightAware ADS-B
Mon 07:21:32 51.3421 -0.3702 69° East 292 336 8,000  Level FlightAware ADS-B
Mon 07:21:38 51.3446 -0.3587 71° East 286 329 8,000  Level FlightAware ADS-B
Mon 07:21:54 51.3512 -0.3253 72° East 285 328 8,000  Level FlightAware ADS-B
Mon 07:22:10 51.3571 -0.2944 73° East 284 327 8,000 -387 Level FlightAware ADS-B
Mon 07:22:25 51.3631 -0.2635 73° East 284 327 7,800 -900 Descending FlightAware ADS-B
Mon 07:22:30 51.3647 -0.2549 73° East 286 329 7,700 -1,125 Descending FlightAware ADS-B
Mon 07:22:41 51.3692 -0.2316 73° East 287 330 7,500 -1,200 Descending FlightAware ADS-B
Mon 07:22:50 51.3724 -0.2153 72° East 285 328 7,300 -800 Descending FlightAware ADS-B
Mon 07:22:56 51.3752 -0.2013 73° East 284 327 7,300 -800 Level FlightAware ADS-B
Mon 07:23:05 51.3788 -0.1829 73° East 285 328 7,100 -1,200 Descending FlightAware ADS-B
Mon 07:23:06 51.3792 -0.1808 72° East 282 325 7,100 -1,000 Level FlightAware ADS-B
Mon 07:23:11 51.3805 -0.1723 76° East 279 321 7,000 -1,000 Descending FlightAware ADS-B
Mon 07:23:18 51.3823 -0.1586 78° East 275 316 6,900 -667 Descending FlightAware ADS-B
Mon 07:23:20 51.3818 -0.1627 258° West 272 313 6,900 -1,000 Level FlightAware ADS-B
Mon 07:23:24 51.3836 -0.1461 80° East 269 310 6,800 -1,333 Descending FlightAware ADS-B
Mon 07:23:29 51.3830 -0.1519 260° West 270 311 6,700 -800 Descending FlightAware ADS-B (EGLC / LCY)
Mon 07:23:39 51.3863 -0.1173 81° East 259 298 6,600 -900 Descending FlightAware ADS-B
Mon 07:23:49 51.3877 -0.1013 82° East 251 289 6,400 -800 Descending FlightAware ADS-B
Mon 07:23:54 51.3888 -0.0890 82° East 246 283 6,400 -600 Level FlightAware ADS-B
Mon 07:24:09 51.3912 -0.0631 82° East 234 269 6,200 -706 Descending FlightAware ADS-B
Mon 07:24:11 51.3914 -0.0601 83° East 235 270 6,200 -1,059 Level FlightAware ADS-B
Mon 07:24:26 51.3938 -0.0350 81° East 234 269 5,900 -1,263 Descending FlightAware ADS-B
Mon 07:24:30 51.3944 -0.0287 82° East 235 270 5,800 -1,059 Descending FlightAware ADS-B
Mon 07:24:43 51.3967 -0.0053 81° East 235 270 5,600 -947 Descending FlightAware ADS-B
Mon 07:24:49 51.3977 0.0045 81° East 235 270 5,500 -1,125 Descending FlightAware ADS-B
Mon 07:24:59 51.3995 0.0220 81° East 235 270 5,300 -692 Descending FlightAware ADS-B
Mon 07:25:15 51.4039 0.0488 75° East 239 275 5,200 -250 Descending FlightAware ADS-B
Mon 07:25:23 51.4072 0.0608 66° East 240 276 5,200  Level FlightAware ADS-B (EGLC / LCY)
Mon 07:25:35 51.4135 0.0810 63° Northeast 241 277 5,200  Level FlightAware ADS-B
Mon 07:25:41 51.4167 0.0878 53° Northeast 241 277 5,200  Level FlightAware ADS-B
Mon 07:25:44 51.4204 0.0935 44° Northeast 241 277 5,200  Level FlightAware ADS-B
Mon 07:25:55 51.4304 0.1024 29° Northeast 235 270 5,200  Level FlightAware ADS-B
Mon 07:26:01 51.4366 0.1050 15° North 234 269 5,200  Level FlightAware ADS-B
Mon 07:26:04 51.4391 0.1057 10° North 230 265 5,200  Level FlightAware ADS-B
Mon 07:26:10 51.4466 0.1073 North 226 260 5,200  Level FlightAware ADS-B
Mon 07:26:23 51.4595 0.1070 359° North 215 247 5,200  Level FlightAware ADS-B
Mon 07:26:30 51.4655 0.1034 340° North 203 234 5,200  Level FlightAware ADS-B
Mon 07:26:39 51.4718 0.0947 319° Northwest 190 219 5,200  Level FlightAware ADS-B
Mon 07:26:43 51.4731 0.0913 301° West 177 204 5,200  Level FlightAware ADS-B
Mon 07:26:44 51.4737 0.0891 293° West 181 208 5,200  Level FlightAware ADS-B
Mon 07:26:48 51.4746 0.0844 287° West 172 198 5,200  Level FlightAware ADS-B
Mon 07:26:51 51.4746 0.0844 360° North 167 192 5,200 -667 Level FlightAware ADS-B
Mon 07:26:57 51.4754 0.0795 284° West 166 191 5,100 -923 Descending FlightAware ADS-B (EGLC / LCY)
Mon 07:27:04 51.4771 0.0655 281° West 163 188 5,000 -706 Descending FlightAware ADS-B
Mon 07:27:14 51.4781 0.0530 277° West 163 188 4,900 -429 Descending FlightAware ADS-B
Mon 07:27:18 51.4783 0.0481 274° West 162 186 4,900  Level FlightAware ADS-B
Mon 07:27:19 51.4783 0.0481 180° South 162 186 4,900 -857 Level FlightAware ADS-B
Mon 07:27:25 51.3783 -0.1854 236° Southwest 181 208 4,800 -545 Descending FlightAware ADS-B
Mon 07:27:30 51.4783 0.0341 54° Northeast 162 186 4,800 -545 Level FlightAware ADS-B
Mon 07:27:36 51.4783 0.0272 270° West 162 186 4,700 -400 Descending FlightAware ADS-B
Mon 07:27:45 51.4782 0.0212 269° West 159 183 4,700 -375 Level FlightAware ADS-B
Mon 07:27:52 51.4783 0.0076 271° West 160 184 4,600 -333 Descending FlightAware ADS-B
Mon 07:28:03 51.4783 -0.0050 270° West 160 184 4,600 -353 Level FlightAware ADS-B
Mon 07:28:09 51.4783 -0.0115 271° West 159 183 4,500 -375 Descending FlightAware ADS-B
Mon 07:28:19 51.4783 -0.0186 270° West 147 169 4,500  Level FlightAware ADS-B
Mon 07:28:25 51.4783 -0.0295 270° West 145 167 4,500 -400 Level FlightAware ADS-B
Mon 07:28:34 51.4784 -0.0394 271° West 138 159 4,400 -600 Descending FlightAware ADS-B
Mon 07:28:35 51.4784 -0.0399 271° West 138 159 4,400 -316 Level FlightAware ADS-B
Mon 07:28:53 51.4784 -0.0572 270° West 134 154 4,300 -300 Descending FlightAware ADS-B
Mon 07:28:55 51.4784 -0.0597 270° West 135 155 4,300 -333 Level FlightAware ADS-B
Mon 07:29:11 51.4784 -0.0756 270° West 132 152 4,200 -353 Descending FlightAware ADS-B
Mon 07:29:12 51.4784 -0.0729 91° East 133 153 4,200  Level FlightAware ADS-B
Mon 07:29:28 51.4783 -0.0926 270° West 132 152 4,200  Level FlightAware ADS-B
Mon 07:29:45 51.4783 -0.1086 270° West 129 148 4,200  Level FlightAware ADS-B
Mon 07:29:49 51.4783 -0.1125 270° West 129 148 4,200 -400 Level FlightAware ADS-B
Mon 07:30:00 51.4782 -0.1230 269° West 129 148 4,100 -667 Descending FlightAware ADS-B
Mon 07:30:07 51.4782 -0.1300 270° West 130 150 4,000 -800 Descending FlightAware ADS-B
Mon 07:30:15 51.4782 -0.1376 270° West 130 150 3,900 -750 Descending FlightAware ADS-B
Mon 07:30:23 51.4782 -0.1456 270° West 129 148 3,800 -706 Descending FlightAware ADS-B
Mon 07:30:32 51.4782 -0.1540 270° West 128 147 3,700 -400 Descending FlightAware ADS-B
Mon 07:30:38 51.4782 -0.1588 270° West 128 147 3,700 -600 Level FlightAware ADS-B
Mon 07:30:52 51.4782 -0.1724 270° West 129 148 3,500 -720 Descending FlightAware ADS-B
Mon 07:31:03 51.4782 -0.1828 270° West 129 148 3,400 -632 Descending FlightAware ADS-B
Mon 07:31:11 51.4782 -0.1912 270° West 129 148 3,300 -706 Descending FlightAware ADS-B
Mon 07:31:20 51.4782 -0.1955 270° West 131 151 3,200 -900 Descending FlightAware ADS-B (EGLC / LCY)
Mon 07:31:31 51.4782 -0.2098 270° West 131 151 3,000 -947 Descending FlightAware ADS-B
Mon 07:31:39 51.4782 -0.2177 270° West 133 153 2,900 -522 Descending FlightAware ADS-B (EGLC / LCY)
Mon 07:31:54 51.4781 -0.2326 270° West 136 157 2,800 -581 Descending FlightAware ADS-B
Mon 07:32:10 51.4781 -0.2419 270° West 137 158 2,600 -909 Descending FlightAware ADS-B
Mon 07:32:27 51.4780 -0.2660 270° West 139 160 2,300 -833 Descending FlightAware ADS-B (EGLC / LCY)
Mon 07:32:46 51.4781 -0.2865 270° West 143 165 2,100 -667 Descending FlightAware ADS-B
Mon 07:33:03 51.4780 -0.3049 270° West 143 165 1,900 -818 Descending FlightAware ADS-B
Mon 07:33:08 51.4780 -0.3095 270° West 143 165 1,800 -818 Descending FlightAware ADS-B (EGLC / LCY)
Mon 07:33:25 51.4780 -0.3265 270° West 143 165 1,600 -706 Descending FlightAware ADS-B
Mon 07:33:59 51.4779 -0.3634 270° West 142 163 1,200 -778 Descending FlightAware ADS-B
Mon 07:34:19 51.4778 -0.3824 270° West 142 163 900 -724 Descending FlightAware ADS-B
Mon 07:34:57 51.4780 -0.4230 270° West 142 163 500 -750 Descending FlightAware ADS-B
Mon 07:34:59 51.4776 -0.4276 270° West 150 173 400 -316 Descending FlightAware UK
Mon 07:35:35 51.4780 -0.4600 270° West 143 165 300 -167 Descending FlightAware ADS-B

Login

Don't have an account? Register now (free) for customized features, flight alerts, and more!